<?xml version="1.0" encoding="UTF-8" standalone="no" ?>
<gpx xmlns="http://www.topografix.com/GPX/1/1" xmlns:xsi="http://www.w3.org/2001/XMLSchema-instance" xsi:schemaLocation="http://www.topografix.com/GPX/1/1 http://www.topografix.com/GPX/1/1/gpx.xsd" version="1.1" creator="VisuGPX - https://www.visugpx.com">
  <metadata>
    <name>Colmars Ratery Saint-Jean</name>
    <desc><![CDATA[Une petite boucle qui vous amménera de Ratery à la Colletta, un panorama de toute beauté et un lieu de détente et de méditation tout confort !]]></desc>
  </metadata>
  <trk>
    <name><![CDATA[Ratery, Chapelle Saint-Jean, La Colletta]]></name>
    <extensions>
      <line xmlns="http://www.topografix.com/GPX/gpx_style/0/2">
        <color>ff0000</color>
        <opacity>1</opacity>
        <width>4</width>
      </line>
    </extensions>
    <trkseg>
      <trkpt lat="44.187" lon="6.652">
        <ele>1683.2</ele>
        <time>2024-07-10T07:44:02Z</time>
      </trkpt>
      <trkpt lat="44.18696" lon="6.65201">
        <ele>1684.4</ele>
        <time>2024-07-10T07:44:18.499Z</time>
      </trkpt>
      <trkpt lat="44.18691" lon="6.65202">
        <ele>1685.9</ele>
        <time>2024-07-10T07:44:35Z</time>
      </trkpt>
      <trkpt lat="44.18691" lon="6.6521">
        <ele>1686.7</ele>
        <time>2024-07-10T07:45:01Z</time>
      </trkpt>
      <trkpt lat="44.18689" lon="6.65217">
        <ele>1688</ele>
        <time>2024-07-10T07:45:07.999Z</time>
      </trkpt>
      <trkpt lat="44.18687" lon="6.65224">
        <ele>1689.3</ele>
        <time>2024-07-10T07:45:15Z</time>
      </trkpt>
      <trkpt lat="44.18685" lon="6.65231">
        <ele>1690.4</ele>
        <time>2024-07-10T07:45:20.499Z</time>
      </trkpt>
      <trkpt lat="44.18683" lon="6.65238">
        <ele>1691.4</ele>
        <time>2024-07-10T07:45:26Z</time>
      </trkpt>
      <trkpt lat="44.18681" lon="6.65248">
        <ele>1692.7</ele>
        <time>2024-07-10T07:45:47Z</time>
      </trkpt>
      <trkpt lat="44.18683" lon="6.65257">
        <ele>1692.7</ele>
        <time>2024-07-10T07:45:54.500Z</time>
      </trkpt>
      <trkpt lat="44.18684" lon="6.65266">
        <ele>1692.6</ele>
        <time>2024-07-10T07:46:02Z</time>
      </trkpt>
      <trkpt lat="44.18682" lon="6.65273">
        <ele>1693.4</ele>
        <time>2024-07-10T07:46:08.999Z</time>
      </trkpt>
      <trkpt lat="44.1868" lon="6.6528">
        <ele>1694.3</ele>
        <time>2024-07-10T07:46:16Z</time>
      </trkpt>
      <trkpt lat="44.1868" lon="6.65288">
        <ele>1694.7</ele>
        <time>2024-07-10T07:46:21.500Z</time>
      </trkpt>
      <trkpt lat="44.1868" lon="6.65295">
        <ele>1695.1</ele>
        <time>2024-07-10T07:46:27Z</time>
      </trkpt>
      <trkpt lat="44.1868" lon="6.65303">
        <ele>1695.5</ele>
        <time>2024-07-10T07:46:33.500Z</time>
      </trkpt>
      <trkpt lat="44.1868" lon="6.65311">
        <ele>1696</ele>
        <time>2024-07-10T07:46:40Z</time>
      </trkpt>
      <trkpt lat="44.18679" lon="6.6532">
        <ele>1696.9</ele>
        <time>2024-07-10T07:46:45.999Z</time>
      </trkpt>
      <trkpt lat="44.18678" lon="6.65328">
        <ele>1697.8</ele>
        <time>2024-07-10T07:46:52Z</time>
      </trkpt>
      <trkpt lat="44.18677" lon="6.65335">
        <ele>1698.5</ele>
        <time>2024-07-10T07:46:58.499Z</time>
      </trkpt>
      <trkpt lat="44.18676" lon="6.65341">
        <ele>1699.2</ele>
        <time>2024-07-10T07:47:05Z</time>
      </trkpt>
      <trkpt lat="44.18673" lon="6.65344">
        <ele>1700.2</ele>
        <time>2024-07-10T07:47:24Z</time>
      </trkpt>
      <trkpt lat="44.18666" lon="6.65344">
        <ele>1701.9</ele>
        <time>2024-07-10T07:47:31.500Z</time>
      </trkpt>
      <trkpt lat="44.18659" lon="6.65344">
        <ele>1703.7</ele>
        <time>2024-07-10T07:47:39Z</time>
      </trkpt>
      <trkpt lat="44.18652" lon="6.65342">
        <ele>1705.3</ele>
        <time>2024-07-10T07:47:53Z</time>
      </trkpt>
      <trkpt lat="44.18647" lon="6.6534">
        <ele>1706.4</ele>
        <time>2024-07-10T07:48:00.499Z</time>
      </trkpt>
      <trkpt lat="44.18642" lon="6.65337">
        <ele>1707.5</ele>
        <time>2024-07-10T07:48:08Z</time>
      </trkpt>
      <trkpt lat="44.18637" lon="6.65337">
        <ele>1708.8</ele>
        <time>2024-07-10T07:48:16.500Z</time>
      </trkpt>
      <trkpt lat="44.18631" lon="6.65336">
        <ele>1710.2</ele>
        <time>2024-07-10T07:48:25Z</time>
      </trkpt>
      <trkpt lat="44.18626" lon="6.65328">
        <ele>1711.1</ele>
        <time>2024-07-10T07:48:32.499Z</time>
      </trkpt>
      <trkpt lat="44.18621" lon="6.6532">
        <ele>1712.3</ele>
        <time>2024-07-10T07:48:40Z</time>
      </trkpt>
      <trkpt lat="44.18617" lon="6.6531">
        <ele>1713.3</ele>
        <time>2024-07-10T07:48:59Z</time>
      </trkpt>
      <trkpt lat="44.18623" lon="6.65311">
        <ele>1711.7</ele>
        <time>2024-07-10T07:49:21Z</time>
      </trkpt>
      <trkpt lat="44.18618" lon="6.65312">
        <ele>1713.1</ele>
        <time>2024-07-10T07:49:36.000Z</time>
      </trkpt>
      <trkpt lat="44.18613" lon="6.65312">
        <ele>1714.5</ele>
        <time>2024-07-10T07:49:51Z</time>
      </trkpt>
      <trkpt lat="44.18608" lon="6.65307">
        <ele>1715.8</ele>
        <time>2024-07-10T07:49:57.499Z</time>
      </trkpt>
      <trkpt lat="44.18603" lon="6.65302">
        <ele>1717</ele>
        <time>2024-07-10T07:50:04Z</time>
      </trkpt>
      <trkpt lat="44.18597" lon="6.65299">
        <ele>1718.4</ele>
        <time>2024-07-10T07:50:09.999Z</time>
      </trkpt>
      <trkpt lat="44.18591" lon="6.65296">
        <ele>1720</ele>
        <time>2024-07-10T07:50:16Z</time>
      </trkpt>
      <trkpt lat="44.18586" lon="6.65295">
        <ele>1721.3</ele>
        <time>2024-07-10T07:50:22.999Z</time>
      </trkpt>
      <trkpt lat="44.18581" lon="6.65293">
        <ele>1722.7</ele>
        <time>2024-07-10T07:50:30Z</time>
      </trkpt>
      <trkpt lat="44.18576" lon="6.65293">
        <ele>1724.3</ele>
        <time>2024-07-10T07:50:36.500Z</time>
      </trkpt>
      <trkpt lat="44.1857" lon="6.65292">
        <ele>1725.8</ele>
        <time>2024-07-10T07:50:43Z</time>
      </trkpt>
      <trkpt lat="44.18565" lon="6.65291">
        <ele>1727.3</ele>
        <time>2024-07-10T07:50:50.999Z</time>
      </trkpt>
      <trkpt lat="44.1856" lon="6.65289">
        <ele>1728.7</ele>
        <time>2024-07-10T07:50:59Z</time>
      </trkpt>
      <trkpt lat="44.18556" lon="6.65285">
        <ele>1729.9</ele>
        <time>2024-07-10T07:51:09.499Z</time>
      </trkpt>
      <trkpt lat="44.18552" lon="6.6528">
        <ele>1730.9</ele>
        <time>2024-07-10T07:51:20Z</time>
      </trkpt>
      <trkpt lat="44.18551" lon="6.65274">
        <ele>1731.3</ele>
        <time>2024-07-10T07:51:26.999Z</time>
      </trkpt>
      <trkpt lat="44.18549" lon="6.65268">
        <ele>1731.7</ele>
        <time>2024-07-10T07:51:34Z</time>
      </trkpt>
      <trkpt lat="44.18546" lon="6.65263">
        <ele>1732.5</ele>
        <time>2024-07-10T07:51:42.999Z</time>
      </trkpt>
      <trkpt lat="44.18542" lon="6.65258">
        <ele>1733.4</ele>
        <time>2024-07-10T07:51:52Z</time>
      </trkpt>
      <trkpt lat="44.18537" lon="6.65252">
        <ele>1734.8</ele>
        <time>2024-07-10T07:51:58.999Z</time>
      </trkpt>
      <trkpt lat="44.18531" lon="6.65246">
        <ele>1736</ele>
        <time>2024-07-10T07:52:06Z</time>
      </trkpt>
      <trkpt lat="44.18527" lon="6.65244">
        <ele>1737</ele>
        <time>2024-07-10T07:52:15.999Z</time>
      </trkpt>
      <trkpt lat="44.18522" lon="6.65241">
        <ele>1737.9</ele>
        <time>2024-07-10T07:52:26Z</time>
      </trkpt>
      <trkpt lat="44.18518" lon="6.65238">
        <ele>1738.6</ele>
        <time>2024-07-10T07:52:34.499Z</time>
      </trkpt>
      <trkpt lat="44.18513" lon="6.65234">
        <ele>1739.3</ele>
        <time>2024-07-10T07:52:43Z</time>
      </trkpt>
      <trkpt lat="44.18509" lon="6.65236">
        <ele>1740.3</ele>
        <time>2024-07-10T07:52:51.499Z</time>
      </trkpt>
      <trkpt lat="44.18504" lon="6.65237">
        <ele>1741.3</ele>
        <time>2024-07-10T07:53:00Z</time>
      </trkpt>
      <trkpt lat="44.18499" lon="6.65237">
        <ele>1742.3</ele>
        <time>2024-07-10T07:53:09.000Z</time>
      </trkpt>
      <trkpt lat="44.18494" lon="6.65237">
        <ele>1743.3</ele>
        <time>2024-07-10T07:53:18Z</time>
      </trkpt>
      <trkpt lat="44.18488" lon="6.65239">
        <ele>1744.6</ele>
        <time>2024-07-10T07:53:28.999Z</time>
      </trkpt>
      <trkpt lat="44.18482" lon="6.65241">
        <ele>1746</ele>
        <time>2024-07-10T07:53:40Z</time>
      </trkpt>
      <trkpt lat="44.18476" lon="6.65234">
        <ele>1746.5</ele>
        <time>2024-07-10T07:54:01Z</time>
      </trkpt>
      <trkpt lat="44.18471" lon="6.6524">
        <ele>1748.2</ele>
        <time>2024-07-10T07:54:18Z</time>
      </trkpt>
      <trkpt lat="44.18463" lon="6.65243">
        <ele>1750.5</ele>
        <time>2024-07-10T07:54:36Z</time>
      </trkpt>
      <trkpt lat="44.18458" lon="6.65245">
        <ele>1752</ele>
        <time>2024-07-10T07:54:42.999Z</time>
      </trkpt>
      <trkpt lat="44.18453" lon="6.65247">
        <ele>1753.4</ele>
        <time>2024-07-10T07:54:50Z</time>
      </trkpt>
      <trkpt lat="44.18453" lon="6.65258">
        <ele>1754.9</ele>
        <time>2024-07-10T07:55:01Z</time>
      </trkpt>
      <trkpt lat="44.18447" lon="6.65264">
        <ele>1757.3</ele>
        <time>2024-07-10T07:55:13Z</time>
      </trkpt>
      <trkpt lat="44.18446" lon="6.65271">
        <ele>1758.6</ele>
        <time>2024-07-10T07:55:26Z</time>
      </trkpt>
      <trkpt lat="44.18443" lon="6.65278">
        <ele>1760.5</ele>
        <time>2024-07-10T07:55:46Z</time>
      </trkpt>
      <trkpt lat="44.18435" lon="6.65281">
        <ele>1763.6</ele>
        <time>2024-07-10T07:56:02Z</time>
      </trkpt>
      <trkpt lat="44.18427" lon="6.65276">
        <ele>1765.4</ele>
        <time>2024-07-10T07:56:15Z</time>
      </trkpt>
      <trkpt lat="44.18422" lon="6.65274">
        <ele>1766.5</ele>
        <time>2024-07-10T07:56:21.999Z</time>
      </trkpt>
      <trkpt lat="44.18417" lon="6.65271">
        <ele>1767.7</ele>
        <time>2024-07-10T07:56:29Z</time>
      </trkpt>
      <trkpt lat="44.18413" lon="6.65269">
        <ele>1768.9</ele>
        <time>2024-07-10T07:56:36.999Z</time>
      </trkpt>
      <trkpt lat="44.18408" lon="6.65266">
        <ele>1770.2</ele>
        <time>2024-07-10T07:56:45Z</time>
      </trkpt>
      <trkpt lat="44.18402" lon="6.65265">
        <ele>1772.2</ele>
        <time>2024-07-10T07:56:52.999Z</time>
      </trkpt>
      <trkpt lat="44.18396" lon="6.65263">
        <ele>1774.1</ele>
        <time>2024-07-10T07:57:01Z</time>
      </trkpt>
      <trkpt lat="44.18395" lon="6.65274">
        <ele>1776.8</ele>
        <time>2024-07-10T07:57:20Z</time>
      </trkpt>
      <trkpt lat="44.18401" lon="6.65281">
        <ele>1776</ele>
        <time>2024-07-10T07:57:28.000Z</time>
      </trkpt>
      <trkpt lat="44.18406" lon="6.65287">
        <ele>1775.2</ele>
        <time>2024-07-10T07:57:36Z</time>
      </trkpt>
      <trkpt lat="44.18409" lon="6.65294">
        <ele>1775.6</ele>
        <time>2024-07-10T07:57:44.500Z</time>
      </trkpt>
      <trkpt lat="44.18411" lon="6.653">
        <ele>1776</ele>
        <time>2024-07-10T07:57:53Z</time>
      </trkpt>
      <trkpt lat="44.18414" lon="6.65306">
        <ele>1776.3</ele>
        <time>2024-07-10T07:58:02.500Z</time>
      </trkpt>
      <trkpt lat="44.18416" lon="6.65312">
        <ele>1776.4</ele>
        <time>2024-07-10T07:58:12Z</time>
      </trkpt>
      <trkpt lat="44.18419" lon="6.65318">
        <ele>1776.2</ele>
        <time>2024-07-10T07:58:22.000Z</time>
      </trkpt>
      <trkpt lat="44.18422" lon="6.65324">
        <ele>1776</ele>
        <time>2024-07-10T07:58:32Z</time>
      </trkpt>
      <trkpt lat="44.18428" lon="6.65329">
        <ele>1774.3</ele>
        <time>2024-07-10T07:58:40.500Z</time>
      </trkpt>
      <trkpt lat="44.18433" lon="6.65334">
        <ele>1772.4</ele>
        <time>2024-07-10T07:58:49Z</time>
      </trkpt>
      <trkpt lat="44.18437" lon="6.65338">
        <ele>1770.8</ele>
        <time>2024-07-10T07:59:07Z</time>
      </trkpt>
      <trkpt lat="44.18444" lon="6.65341">
        <ele>1767.8</ele>
        <time>2024-07-10T07:59:23Z</time>
      </trkpt>
      <trkpt lat="44.18441" lon="6.65345">
        <ele>1769.7</ele>
        <time>2024-07-10T07:59:29.499Z</time>
      </trkpt>
      <trkpt lat="44.18437" lon="6.65349">
        <ele>1771.6</ele>
        <time>2024-07-10T07:59:36Z</time>
      </trkpt>
      <trkpt lat="44.18439" lon="6.65358">
        <ele>1771.3</ele>
        <time>2024-07-10T07:59:54Z</time>
      </trkpt>
      <trkpt lat="44.18437" lon="6.65362">
        <ele>1772.5</ele>
        <time>2024-07-10T08:00:24Z</time>
      </trkpt>
      <trkpt lat="44.18437" lon="6.6537">
        <ele>1772.9</ele>
        <time>2024-07-10T08:00:33.500Z</time>
      </trkpt>
      <trkpt lat="44.18437" lon="6.65377">
        <ele>1773.3</ele>
        <time>2024-07-10T08:00:43Z</time>
      </trkpt>
      <trkpt lat="44.18436" lon="6.65384">
        <ele>1774.1</ele>
        <time>2024-07-10T08:00:49.999Z</time>
      </trkpt>
      <trkpt lat="44.18435" lon="6.6539">
        <ele>1774.9</ele>
        <time>2024-07-10T08:00:57Z</time>
      </trkpt>
      <trkpt lat="44.18434" lon="6.65395">
        <ele>1775.8</ele>
        <time>2024-07-10T08:01:26Z</time>
      </trkpt>
      <trkpt lat="44.18432" lon="6.65397">
        <ele>1776.7</ele>
        <time>2024-07-10T08:01:51Z</time>
      </trkpt>
      <trkpt lat="44.1843" lon="6.65386">
        <ele>1776.6</ele>
        <time>2024-07-10T08:02:12Z</time>
      </trkpt>
      <trkpt lat="44.18432" lon="6.65378">
        <ele>1775.5</ele>
        <time>2024-07-10T08:02:19.500Z</time>
      </trkpt>
      <trkpt lat="44.18434" lon="6.65369">
        <ele>1774.2</ele>
        <time>2024-07-10T08:02:27Z</time>
      </trkpt>
      <trkpt lat="44.18435" lon="6.65362">
        <ele>1773.5</ele>
        <time>2024-07-10T08:02:34.000Z</time>
      </trkpt>
      <trkpt lat="44.18436" lon="6.65355">
        <ele>1772.5</ele>
        <time>2024-07-10T08:02:41Z</time>
      </trkpt>
      <trkpt lat="44.18435" lon="6.65362">
        <ele>1773.5</ele>
        <time>2024-07-10T08:02:48.999Z</time>
      </trkpt>
      <trkpt lat="44.18434" lon="6.65369">
        <ele>1774.2</ele>
        <time>2024-07-10T08:02:57Z</time>
      </trkpt>
      <trkpt lat="44.18431" lon="6.65376">
        <ele>1776.1</ele>
        <time>2024-07-10T08:03:02.999Z</time>
      </trkpt>
      <trkpt lat="44.18427" lon="6.65383">
        <ele>1777.8</ele>
        <time>2024-07-10T08:03:09Z</time>
      </trkpt>
      <trkpt lat="44.18423" lon="6.65389">
        <ele>1779.5</ele>
        <time>2024-07-10T08:03:14.999Z</time>
      </trkpt>
      <trkpt lat="44.18419" lon="6.65395">
        <ele>1781.4</ele>
        <time>2024-07-10T08:03:21Z</time>
      </trkpt>
      <trkpt lat="44.18416" lon="6.65401">
        <ele>1782.9</ele>
        <time>2024-07-10T08:03:26.999Z</time>
      </trkpt>
      <trkpt lat="44.18412" lon="6.65407">
        <ele>1784.6</ele>
        <time>2024-07-10T08:03:33Z</time>
      </trkpt>
      <trkpt lat="44.18407" lon="6.65411">
        <ele>1786.7</ele>
        <time>2024-07-10T08:03:54Z</time>
      </trkpt>
      <trkpt lat="44.18415" lon="6.65413">
        <ele>1783.5</ele>
        <time>2024-07-10T08:04:06Z</time>
      </trkpt>
      <trkpt lat="44.18422" lon="6.65418">
        <ele>1781.9</ele>
        <time>2024-07-10T08:04:14.500Z</time>
      </trkpt>
      <trkpt lat="44.18428" lon="6.65422">
        <ele>1781.5</ele>
        <time>2024-07-10T08:04:23Z</time>
      </trkpt>
      <trkpt lat="44.18423" lon="6.6542">
        <ele>1782.3</ele>
        <time>2024-07-10T08:04:42Z</time>
      </trkpt>
      <trkpt lat="44.18421" lon="6.65417">
        <ele>1781.9</ele>
        <time>2024-07-10T08:05:06Z</time>
      </trkpt>
      <trkpt lat="44.18419" lon="6.65426">
        <ele>1785.4</ele>
        <time>2024-07-10T08:05:22Z</time>
      </trkpt>
      <trkpt lat="44.18425" lon="6.65429">
        <ele>1784.6</ele>
        <time>2024-07-10T08:05:37Z</time>
      </trkpt>
      <trkpt lat="44.18423" lon="6.65432">
        <ele>1786.1</ele>
        <time>2024-07-10T08:06:19Z</time>
      </trkpt>
      <trkpt lat="44.18419" lon="6.65428">
        <ele>1786</ele>
        <time>2024-07-10T08:06:29.499Z</time>
      </trkpt>
      <trkpt lat="44.18415" lon="6.65424">
        <ele>1786</ele>
        <time>2024-07-10T08:06:40Z</time>
      </trkpt>
      <trkpt lat="44.18412" lon="6.65417">
        <ele>1785</ele>
        <time>2024-07-10T08:06:46.999Z</time>
      </trkpt>
      <trkpt lat="44.18409" lon="6.6541">
        <ele>1785.9</ele>
        <time>2024-07-10T08:06:54Z</time>
      </trkpt>
      <trkpt lat="44.18406" lon="6.65401">
        <ele>1786.9</ele>
        <time>2024-07-10T08:07:19Z</time>
      </trkpt>
      <trkpt lat="44.18409" lon="6.65396">
        <ele>1785.5</ele>
        <time>2024-07-10T08:07:48Z</time>
      </trkpt>
      <trkpt lat="44.18416" lon="6.65393">
        <ele>1782.4</ele>
        <time>2024-07-10T08:07:54.500Z</time>
      </trkpt>
      <trkpt lat="44.18423" lon="6.6539">
        <ele>1779.6</ele>
        <time>2024-07-10T08:08:01Z</time>
      </trkpt>
      <trkpt lat="44.18427" lon="6.65379">
        <ele>1777.6</ele>
        <time>2024-07-10T08:08:16Z</time>
      </trkpt>
      <trkpt lat="44.18428" lon="6.65372">
        <ele>1777.2</ele>
        <time>2024-07-10T08:08:21.500Z</time>
      </trkpt>
      <trkpt lat="44.18428" lon="6.65364">
        <ele>1776.8</ele>
        <time>2024-07-10T08:08:27Z</time>
      </trkpt>
      <trkpt lat="44.18434" lon="6.65355">
        <ele>1773.4</ele>
        <time>2024-07-10T08:08:36Z</time>
      </trkpt>
      <trkpt lat="44.18432" lon="6.65348">
        <ele>1773.8</ele>
        <time>2024-07-10T08:08:41.999Z</time>
      </trkpt>
      <trkpt lat="44.1843" lon="6.6534">
        <ele>1774.2</ele>
        <time>2024-07-10T08:08:48Z</time>
      </trkpt>
      <trkpt lat="44.18425" lon="6.65336">
        <ele>1776.3</ele>
        <time>2024-07-10T08:08:56.499Z</time>
      </trkpt>
      <trkpt lat="44.1842" lon="6.65331">
        <ele>1778</ele>
        <time>2024-07-10T08:09:05Z</time>
      </trkpt>
      <trkpt lat="44.18414" lon="6.65329">
        <ele>1780.6</ele>
        <time>2024-07-10T08:09:14.499Z</time>
      </trkpt>
      <trkpt lat="44.18407" lon="6.65327">
        <ele>1783</ele>
        <time>2024-07-10T08:09:24Z</time>
      </trkpt>
      <trkpt lat="44.18403" lon="6.65325">
        <ele>1784.5</ele>
        <time>2024-07-10T08:09:32.499Z</time>
      </trkpt>
      <trkpt lat="44.18398" lon="6.65323">
        <ele>1786</ele>
        <time>2024-07-10T08:09:41Z</time>
      </trkpt>
      <trkpt lat="44.18394" lon="6.6532">
        <ele>1787</ele>
        <time>2024-07-10T08:09:50.499Z</time>
      </trkpt>
      <trkpt lat="44.1839" lon="6.65317">
        <ele>1788</ele>
        <time>2024-07-10T08:10:00Z</time>
      </trkpt>
      <trkpt lat="44.18386" lon="6.65316">
        <ele>1789.7</ele>
        <time>2024-07-10T08:10:10.000Z</time>
      </trkpt>
      <trkpt lat="44.18381" lon="6.65315">
        <ele>1791.4</ele>
        <time>2024-07-10T08:10:20Z</time>
      </trkpt>
      <trkpt lat="44.18385" lon="6.65318">
        <ele>1790.4</ele>
        <time>2024-07-10T08:10:29.500Z</time>
      </trkpt>
      <trkpt lat="44.18389" lon="6.65321">
        <ele>1789.3</ele>
        <time>2024-07-10T08:10:39Z</time>
      </trkpt>
      <trkpt lat="44.18392" lon="6.65328">
        <ele>1789.5</ele>
        <time>2024-07-10T08:10:56Z</time>
      </trkpt>
      <trkpt lat="44.18384" lon="6.65331">
        <ele>1793.6</ele>
        <time>2024-07-10T08:11:09Z</time>
      </trkpt>
      <trkpt lat="44.1839" lon="6.65336">
        <ele>1791.8</ele>
        <time>2024-07-10T08:11:26Z</time>
      </trkpt>
      <trkpt lat="44.18385" lon="6.65336">
        <ele>1794.1</ele>
        <time>2024-07-10T08:11:34.500Z</time>
      </trkpt>
      <trkpt lat="44.18379" lon="6.65335">
        <ele>1796.5</ele>
        <time>2024-07-10T08:11:43Z</time>
      </trkpt>
      <trkpt lat="44.18374" lon="6.6534">
        <ele>1799.3</ele>
        <time>2024-07-10T08:12:00Z</time>
      </trkpt>
      <trkpt lat="44.18378" lon="6.65344">
        <ele>1798</ele>
        <time>2024-07-10T08:12:10.500Z</time>
      </trkpt>
      <trkpt lat="44.18382" lon="6.65348">
        <ele>1796.7</ele>
        <time>2024-07-10T08:12:21Z</time>
      </trkpt>
      <trkpt lat="44.18374" lon="6.65353">
        <ele>1800.9</ele>
        <time>2024-07-10T08:12:40Z</time>
      </trkpt>
      <trkpt lat="44.18367" lon="6.65357">
        <ele>1804.7</ele>
        <time>2024-07-10T08:13:02Z</time>
      </trkpt>
      <trkpt lat="44.18372" lon="6.6536">
        <ele>1802.7</ele>
        <time>2024-07-10T08:13:12.500Z</time>
      </trkpt>
      <trkpt lat="44.18377" lon="6.65362">
        <ele>1800.5</ele>
        <time>2024-07-10T08:13:23Z</time>
      </trkpt>
      <trkpt lat="44.18382" lon="6.65368">
        <ele>1798.1</ele>
        <time>2024-07-10T08:13:33.000Z</time>
      </trkpt>
      <trkpt lat="44.18387" lon="6.65373">
        <ele>1795.5</ele>
        <time>2024-07-10T08:13:43Z</time>
      </trkpt>
      <trkpt lat="44.18383" lon="6.65375">
        <ele>1797.6</ele>
        <time>2024-07-10T08:13:51.999Z</time>
      </trkpt>
      <trkpt lat="44.18378" lon="6.65377">
        <ele>1799.7</ele>
        <time>2024-07-10T08:14:01Z</time>
      </trkpt>
      <trkpt lat="44.18372" lon="6.65384">
        <ele>1802.6</ele>
        <time>2024-07-10T08:14:21Z</time>
      </trkpt>
      <trkpt lat="44.18366" lon="6.65392">
        <ele>1805.5</ele>
        <time>2024-07-10T08:14:41Z</time>
      </trkpt>
      <trkpt lat="44.18359" lon="6.65396">
        <ele>1809.3</ele>
        <time>2024-07-10T08:15:03Z</time>
      </trkpt>
      <trkpt lat="44.18352" lon="6.65395">
        <ele>1813.6</ele>
        <time>2024-07-10T08:15:10.500Z</time>
      </trkpt>
      <trkpt lat="44.18345" lon="6.65394">
        <ele>1817.9</ele>
        <time>2024-07-10T08:15:18Z</time>
      </trkpt>
      <trkpt lat="44.18343" lon="6.65389">
        <ele>1819.1</ele>
        <time>2024-07-10T08:15:40Z</time>
      </trkpt>
      <trkpt lat="44.18339" lon="6.65385">
        <ele>1821.2</ele>
        <time>2024-07-10T08:16:10Z</time>
      </trkpt>
      <trkpt lat="44.18345" lon="6.65388">
        <ele>1817.8</ele>
        <time>2024-07-10T08:16:44Z</time>
      </trkpt>
      <trkpt lat="44.18347" lon="6.65388">
        <ele>1816.6</ele>
        <time>2024-07-10T08:17:09Z</time>
      </trkpt>
      <trkpt lat="44.18348" lon="6.65384">
        <ele>1815.8</ele>
        <time>2024-07-10T08:17:21Z</time>
      </trkpt>
      <trkpt lat="44.18343" lon="6.6538">
        <ele>1818.4</ele>
        <time>2024-07-10T08:17:28.499Z</time>
      </trkpt>
      <trkpt lat="44.18338" lon="6.65375">
        <ele>1820.9</ele>
        <time>2024-07-10T08:17:36Z</time>
      </trkpt>
      <trkpt lat="44.18338" lon="6.65367">
        <ele>1820.4</ele>
        <time>2024-07-10T08:17:44.499Z</time>
      </trkpt>
      <trkpt lat="44.18337" lon="6.65359">
        <ele>1819.8</ele>
        <time>2024-07-10T08:17:53Z</time>
      </trkpt>
      <trkpt lat="44.18336" lon="6.65351">
        <ele>1819.1</ele>
        <time>2024-07-10T08:18:00.999Z</time>
      </trkpt>
      <trkpt lat="44.18335" lon="6.65342">
        <ele>1818.4</ele>
        <time>2024-07-10T08:18:09Z</time>
      </trkpt>
      <trkpt lat="44.18331" lon="6.65336">
        <ele>1819.7</ele>
        <time>2024-07-10T08:18:16.999Z</time>
      </trkpt>
      <trkpt lat="44.18327" lon="6.6533">
        <ele>1820.8</ele>
        <time>2024-07-10T08:18:25Z</time>
      </trkpt>
      <trkpt lat="44.18324" lon="6.65325">
        <ele>1821.2</ele>
        <time>2024-07-10T08:18:32.499Z</time>
      </trkpt>
      <trkpt lat="44.18321" lon="6.6532">
        <ele>1821.5</ele>
        <time>2024-07-10T08:18:40Z</time>
      </trkpt>
      <trkpt lat="44.18318" lon="6.65315">
        <ele>1821.7</ele>
        <time>2024-07-10T08:18:46.999Z</time>
      </trkpt>
      <trkpt lat="44.18315" lon="6.65309">
        <ele>1821.8</ele>
        <time>2024-07-10T08:18:54Z</time>
      </trkpt>
      <trkpt lat="44.18313" lon="6.65303">
        <ele>1821.7</ele>
        <time>2024-07-10T08:19:00.999Z</time>
      </trkpt>
      <trkpt lat="44.1831" lon="6.65297">
        <ele>1822</ele>
        <time>2024-07-10T08:19:08Z</time>
      </trkpt>
      <trkpt lat="44.18307" lon="6.65292">
        <ele>1822.7</ele>
        <time>2024-07-10T08:19:38Z</time>
      </trkpt>
      <trkpt lat="44.18299" lon="6.65288">
        <ele>1827.3</ele>
        <time>2024-07-10T08:20:01Z</time>
      </trkpt>
      <trkpt lat="44.18296" lon="6.65283">
        <ele>1828.5</ele>
        <time>2024-07-10T08:20:08.499Z</time>
      </trkpt>
      <trkpt lat="44.18293" lon="6.65278">
        <ele>1829.6</ele>
        <time>2024-07-10T08:20:16Z</time>
      </trkpt>
      <trkpt lat="44.18295" lon="6.6527">
        <ele>1827.7</ele>
        <time>2024-07-10T08:20:22.500Z</time>
      </trkpt>
      <trkpt lat="44.18297" lon="6.65262">
        <ele>1825.7</ele>
        <time>2024-07-10T08:20:29Z</time>
      </trkpt>
      <trkpt lat="44.18298" lon="6.65255">
        <ele>1824.4</ele>
        <time>2024-07-10T08:20:38.500Z</time>
      </trkpt>
      <trkpt lat="44.18299" lon="6.65248">
        <ele>1823.2</ele>
        <time>2024-07-10T08:20:48Z</time>
      </trkpt>
      <trkpt lat="44.18298" lon="6.6524">
        <ele>1824</ele>
        <time>2024-07-10T08:21:04Z</time>
      </trkpt>
      <trkpt lat="44.18294" lon="6.6523">
        <ele>1827.2</ele>
        <time>2024-07-10T08:21:33Z</time>
      </trkpt>
      <trkpt lat="44.18293" lon="6.65222">
        <ele>1828</ele>
        <time>2024-07-10T08:21:40.999Z</time>
      </trkpt>
      <trkpt lat="44.18292" lon="6.65214">
        <ele>1829</ele>
        <time>2024-07-10T08:21:49Z</time>
      </trkpt>
      <trkpt lat="44.18294" lon="6.65205">
        <ele>1828.2</ele>
        <time>2024-07-10T08:21:56.500Z</time>
      </trkpt>
      <trkpt lat="44.18295" lon="6.65195">
        <ele>1827.3</ele>
        <time>2024-07-10T08:22:04Z</time>
      </trkpt>
      <trkpt lat="44.18294" lon="6.65186">
        <ele>1828.3</ele>
        <time>2024-07-10T08:22:11.499Z</time>
      </trkpt>
      <trkpt lat="44.18293" lon="6.65177">
        <ele>1829.2</ele>
        <time>2024-07-10T08:22:19Z</time>
      </trkpt>
      <trkpt lat="44.18294" lon="6.65169">
        <ele>1828.9</ele>
        <time>2024-07-10T08:22:26.000Z</time>
      </trkpt>
      <trkpt lat="44.18294" lon="6.65161">
        <ele>1828.7</ele>
        <time>2024-07-10T08:22:33Z</time>
      </trkpt>
      <trkpt lat="44.18293" lon="6.65152">
        <ele>1829.7</ele>
        <time>2024-07-10T08:22:41.499Z</time>
      </trkpt>
      <trkpt lat="44.18292" lon="6.65143">
        <ele>1830.7</ele>
        <time>2024-07-10T08:22:50Z</time>
      </trkpt>
      <trkpt lat="44.18291" lon="6.65135">
        <ele>1831.8</ele>
        <time>2024-07-10T08:22:57.999Z</time>
      </trkpt>
      <trkpt lat="44.18289" lon="6.65126">
        <ele>1832.6</ele>
        <time>2024-07-10T08:23:06Z</time>
      </trkpt>
      <trkpt lat="44.18287" lon="6.6512">
        <ele>1833.8</ele>
        <time>2024-07-10T08:23:13.999Z</time>
      </trkpt>
      <trkpt lat="44.18285" lon="6.65113">
        <ele>1834.9</ele>
        <time>2024-07-10T08:23:22Z</time>
      </trkpt>
      <trkpt lat="44.18286" lon="6.65106">
        <ele>1834.1</ele>
        <time>2024-07-10T08:23:29.500Z</time>
      </trkpt>
      <trkpt lat="44.18287" lon="6.65099">
        <ele>1833.4</ele>
        <time>2024-07-10T08:23:37Z</time>
      </trkpt>
      <trkpt lat="44.18287" lon="6.65091">
        <ele>1833.4</ele>
        <time>2024-07-10T08:23:45.000Z</time>
      </trkpt>
      <trkpt lat="44.18287" lon="6.65083">
        <ele>1833.4</ele>
        <time>2024-07-10T08:23:53Z</time>
      </trkpt>
      <trkpt lat="44.18288" lon="6.65075">
        <ele>1833.8</ele>
        <time>2024-07-10T08:24:00.500Z</time>
      </trkpt>
      <trkpt lat="44.18288" lon="6.65066">
        <ele>1834.3</ele>
        <time>2024-07-10T08:24:08Z</time>
      </trkpt>
      <trkpt lat="44.18289" lon="6.65058">
        <ele>1834.7</ele>
        <time>2024-07-10T08:24:15.500Z</time>
      </trkpt>
      <trkpt lat="44.18289" lon="6.6505">
        <ele>1834.9</ele>
        <time>2024-07-10T08:24:23Z</time>
      </trkpt>
      <trkpt lat="44.18289" lon="6.65043">
        <ele>1835.5</ele>
        <time>2024-07-10T08:24:30.000Z</time>
      </trkpt>
      <trkpt lat="44.18289" lon="6.65035">
        <ele>1836</ele>
        <time>2024-07-10T08:24:37Z</time>
      </trkpt>
      <trkpt lat="44.1829" lon="6.65028">
        <ele>1835.8</ele>
        <time>2024-07-10T08:24:45.000Z</time>
      </trkpt>
      <trkpt lat="44.18291" lon="6.6502">
        <ele>1835.3</ele>
        <time>2024-07-10T08:24:53Z</time>
      </trkpt>
      <trkpt lat="44.18292" lon="6.65011">
        <ele>1834.9</ele>
        <time>2024-07-10T08:25:00.500Z</time>
      </trkpt>
      <trkpt lat="44.18293" lon="6.65001">
        <ele>1834.5</ele>
        <time>2024-07-10T08:25:08Z</time>
      </trkpt>
      <trkpt lat="44.18296" lon="6.64994">
        <ele>1833.8</ele>
        <time>2024-07-10T08:25:15.500Z</time>
      </trkpt>
      <trkpt lat="44.18298" lon="6.64986">
        <ele>1833.2</ele>
        <time>2024-07-10T08:25:23Z</time>
      </trkpt>
      <trkpt lat="44.18296" lon="6.64976">
        <ele>1836.1</ele>
        <time>2024-07-10T08:25:30.999Z</time>
      </trkpt>
      <trkpt lat="44.18294" lon="6.64965">
        <ele>1838.8</ele>
        <time>2024-07-10T08:25:39Z</time>
      </trkpt>
      <trkpt lat="44.18297" lon="6.64957">
        <ele>1837.9</ele>
        <time>2024-07-10T08:25:46.500Z</time>
      </trkpt>
      <trkpt lat="44.183" lon="6.64949">
        <ele>1837</ele>
        <time>2024-07-10T08:25:54Z</time>
      </trkpt>
      <trkpt lat="44.18301" lon="6.64941">
        <ele>1837.5</ele>
        <time>2024-07-10T08:26:01.000Z</time>
      </trkpt>
      <trkpt lat="44.18301" lon="6.64933">
        <ele>1837.6</ele>
        <time>2024-07-10T08:26:08Z</time>
      </trkpt>
      <trkpt lat="44.18299" lon="6.64927">
        <ele>1839.2</ele>
        <time>2024-07-10T08:26:17.999Z</time>
      </trkpt>
      <trkpt lat="44.18297" lon="6.64921">
        <ele>1840.7</ele>
        <time>2024-07-10T08:26:28Z</time>
      </trkpt>
      <trkpt lat="44.18298" lon="6.64913">
        <ele>1839.9</ele>
        <time>2024-07-10T08:26:36.500Z</time>
      </trkpt>
      <trkpt lat="44.18299" lon="6.64904">
        <ele>1838.3</ele>
        <time>2024-07-10T08:26:45Z</time>
      </trkpt>
      <trkpt lat="44.18296" lon="6.64896">
        <ele>1839</ele>
        <time>2024-07-10T08:26:53.499Z</time>
      </trkpt>
      <trkpt lat="44.18293" lon="6.64888">
        <ele>1839.6</ele>
        <time>2024-07-10T08:27:02Z</time>
      </trkpt>
      <trkpt lat="44.18288" lon="6.64883">
        <ele>1841</ele>
        <time>2024-07-10T08:27:09.499Z</time>
      </trkpt>
      <trkpt lat="44.18283" lon="6.64878">
        <ele>1842.4</ele>
        <time>2024-07-10T08:27:17Z</time>
      </trkpt>
      <trkpt lat="44.18278" lon="6.64874">
        <ele>1844</ele>
        <time>2024-07-10T08:27:23.999Z</time>
      </trkpt>
      <trkpt lat="44.18273" lon="6.64869">
        <ele>1845</ele>
        <time>2024-07-10T08:27:31Z</time>
      </trkpt>
      <trkpt lat="44.1827" lon="6.64862">
        <ele>1844.6</ele>
        <time>2024-07-10T08:27:38.499Z</time>
      </trkpt>
      <trkpt lat="44.18267" lon="6.64855">
        <ele>1843.6</ele>
        <time>2024-07-10T08:27:46Z</time>
      </trkpt>
      <trkpt lat="44.18265" lon="6.64849">
        <ele>1842.8</ele>
        <time>2024-07-10T08:27:52.999Z</time>
      </trkpt>
      <trkpt lat="44.18262" lon="6.64843">
        <ele>1842</ele>
        <time>2024-07-10T08:28:00Z</time>
      </trkpt>
      <trkpt lat="44.18261" lon="6.64834">
        <ele>1839.9</ele>
        <time>2024-07-10T08:28:07.999Z</time>
      </trkpt>
      <trkpt lat="44.18259" lon="6.64825">
        <ele>1837.1</ele>
        <time>2024-07-10T08:28:16Z</time>
      </trkpt>
      <trkpt lat="44.18257" lon="6.64818">
        <ele>1835.5</ele>
        <time>2024-07-10T08:28:22.499Z</time>
      </trkpt>
      <trkpt lat="44.18254" lon="6.64811">
        <ele>1834</ele>
        <time>2024-07-10T08:28:29Z</time>
      </trkpt>
      <trkpt lat="44.18251" lon="6.64806">
        <ele>1833.4</ele>
        <time>2024-07-10T08:28:35.499Z</time>
      </trkpt>
      <trkpt lat="44.18248" lon="6.648">
        <ele>1832.1</ele>
        <time>2024-07-10T08:28:42Z</time>
      </trkpt>
      <trkpt lat="44.18243" lon="6.64798">
        <ele>1832.6</ele>
        <time>2024-07-10T08:28:50.499Z</time>
      </trkpt>
      <trkpt lat="44.18237" lon="6.64795">
        <ele>1833.2</ele>
        <time>2024-07-10T08:28:59Z</time>
      </trkpt>
      <trkpt lat="44.18233" lon="6.64787">
        <ele>1831.5</ele>
        <time>2024-07-10T08:29:05.999Z</time>
      </trkpt>
      <trkpt lat="44.18229" lon="6.64779">
        <ele>1830</ele>
        <time>2024-07-10T08:29:13Z</time>
      </trkpt>
      <trkpt lat="44.18226" lon="6.64772">
        <ele>1829.1</ele>
        <time>2024-07-10T08:29:18.999Z</time>
      </trkpt>
      <trkpt lat="44.18222" lon="6.64765">
        <ele>1828.3</ele>
        <time>2024-07-10T08:29:25Z</time>
      </trkpt>
      <trkpt lat="44.1822" lon="6.64759">
        <ele>1826.5</ele>
        <time>2024-07-10T08:29:31.999Z</time>
      </trkpt>
      <trkpt lat="44.18217" lon="6.64752">
        <ele>1824.9</ele>
        <time>2024-07-10T08:29:39Z</time>
      </trkpt>
      <trkpt lat="44.18217" lon="6.64744">
        <ele>1823</ele>
        <time>2024-07-10T08:29:49.499Z</time>
      </trkpt>
      <trkpt lat="44.18216" lon="6.64736">
        <ele>1821.1</ele>
        <time>2024-07-10T08:30:00Z</time>
      </trkpt>
      <trkpt lat="44.18209" lon="6.64729">
        <ele>1821.1</ele>
        <time>2024-07-10T08:30:20Z</time>
      </trkpt>
      <trkpt lat="44.18204" lon="6.64731">
        <ele>1822.5</ele>
        <time>2024-07-10T08:30:26.500Z</time>
      </trkpt>
      <trkpt lat="44.18199" lon="6.64732">
        <ele>1823.7</ele>
        <time>2024-07-10T08:30:33Z</time>
      </trkpt>
      <trkpt lat="44.18192" lon="6.64736">
        <ele>1824.4</ele>
        <time>2024-07-10T08:30:46Z</time>
      </trkpt>
      <trkpt lat="44.18188" lon="6.64727">
        <ele>1822.8</ele>
        <time>2024-07-10T08:30:53.999Z</time>
      </trkpt>
      <trkpt lat="44.18183" lon="6.64717">
        <ele>1821.3</ele>
        <time>2024-07-10T08:31:02Z</time>
      </trkpt>
      <trkpt lat="44.1818" lon="6.64709">
        <ele>1820.4</ele>
        <time>2024-07-10T08:31:09.499Z</time>
      </trkpt>
      <trkpt lat="44.18177" lon="6.647">
        <ele>1819.6</ele>
        <time>2024-07-10T08:31:17Z</time>
      </trkpt>
      <trkpt lat="44.18176" lon="6.64694">
        <ele>1819.2</ele>
        <time>2024-07-10T08:31:22.999Z</time>
      </trkpt>
      <trkpt lat="44.18174" lon="6.64687">
        <ele>1818.6</ele>
        <time>2024-07-10T08:31:29Z</time>
      </trkpt>
      <trkpt lat="44.18172" lon="6.6468">
        <ele>1818.1</ele>
        <time>2024-07-10T08:31:35.499Z</time>
      </trkpt>
      <trkpt lat="44.18169" lon="6.64672">
        <ele>1817.9</ele>
        <time>2024-07-10T08:31:42Z</time>
      </trkpt>
      <trkpt lat="44.18164" lon="6.64665">
        <ele>1816.7</ele>
        <time>2024-07-10T08:31:49.499Z</time>
      </trkpt>
      <trkpt lat="44.18159" lon="6.64657">
        <ele>1814.2</ele>
        <time>2024-07-10T08:31:57Z</time>
      </trkpt>
      <trkpt lat="44.18158" lon="6.64648">
        <ele>1813</ele>
        <time>2024-07-10T08:32:03.999Z</time>
      </trkpt>
      <trkpt lat="44.18156" lon="6.64639">
        <ele>1811.9</ele>
        <time>2024-07-10T08:32:11Z</time>
      </trkpt>
      <trkpt lat="44.18153" lon="6.64633">
        <ele>1810.2</ele>
        <time>2024-07-10T08:32:19.499Z</time>
      </trkpt>
      <trkpt lat="44.1815" lon="6.64627">
        <ele>1808.7</ele>
        <time>2024-07-10T08:32:28Z</time>
      </trkpt>
      <trkpt lat="44.18147" lon="6.64619">
        <ele>1807</ele>
        <time>2024-07-10T08:32:35.499Z</time>
      </trkpt>
      <trkpt lat="44.18144" lon="6.6461">
        <ele>1805.6</ele>
        <time>2024-07-10T08:32:43Z</time>
      </trkpt>
      <trkpt lat="44.18142" lon="6.64602">
        <ele>1804.2</ele>
        <time>2024-07-10T08:32:50.999Z</time>
      </trkpt>
      <trkpt lat="44.18139" lon="6.64593">
        <ele>1803</ele>
        <time>2024-07-10T08:32:59Z</time>
      </trkpt>
      <trkpt lat="44.18136" lon="6.64588">
        <ele>1801.3</ele>
        <time>2024-07-10T08:33:05.499Z</time>
      </trkpt>
      <trkpt lat="44.18133" lon="6.64583">
        <ele>1799.6</ele>
        <time>2024-07-10T08:33:12Z</time>
      </trkpt>
      <trkpt lat="44.18129" lon="6.64577">
        <ele>1797.5</ele>
        <time>2024-07-10T08:33:17.999Z</time>
      </trkpt>
      <trkpt lat="44.18125" lon="6.6457">
        <ele>1795.5</ele>
        <time>2024-07-10T08:33:24Z</time>
      </trkpt>
      <trkpt lat="44.18124" lon="6.6456">
        <ele>1794.5</ele>
        <time>2024-07-10T08:33:29.499Z</time>
      </trkpt>
      <trkpt lat="44.18123" lon="6.6455">
        <ele>1793.3</ele>
        <time>2024-07-10T08:33:35Z</time>
      </trkpt>
      <trkpt lat="44.18122" lon="6.64542">
        <ele>1792.1</ele>
        <time>2024-07-10T08:33:40.999Z</time>
      </trkpt>
      <trkpt lat="44.1812" lon="6.64534">
        <ele>1790.9</ele>
        <time>2024-07-10T08:33:47Z</time>
      </trkpt>
      <trkpt lat="44.18117" lon="6.64523">
        <ele>1789.3</ele>
        <time>2024-07-10T08:34:04Z</time>
      </trkpt>
      <trkpt lat="44.18116" lon="6.64516">
        <ele>1788.4</ele>
        <time>2024-07-10T08:34:10.999Z</time>
      </trkpt>
      <trkpt lat="44.18114" lon="6.64508">
        <ele>1787.6</ele>
        <time>2024-07-10T08:34:18Z</time>
      </trkpt>
      <trkpt lat="44.18109" lon="6.64509">
        <ele>1787</ele>
        <time>2024-07-10T08:34:38Z</time>
      </trkpt>
      <trkpt lat="44.18108" lon="6.64501">
        <ele>1786</ele>
        <time>2024-07-10T08:34:47.999Z</time>
      </trkpt>
      <trkpt lat="44.18106" lon="6.64493">
        <ele>1785.1</ele>
        <time>2024-07-10T08:34:58Z</time>
      </trkpt>
      <trkpt lat="44.18104" lon="6.64487">
        <ele>1784</ele>
        <time>2024-07-10T08:35:03.999Z</time>
      </trkpt>
      <trkpt lat="44.18101" lon="6.64481">
        <ele>1783</ele>
        <time>2024-07-10T08:35:10Z</time>
      </trkpt>
      <trkpt lat="44.18094" lon="6.64476">
        <ele>1780.9</ele>
        <time>2024-07-10T08:35:22Z</time>
      </trkpt>
      <trkpt lat="44.18091" lon="6.64469">
        <ele>1779.5</ele>
        <time>2024-07-10T08:35:28.999Z</time>
      </trkpt>
      <trkpt lat="44.18087" lon="6.64461">
        <ele>1778.1</ele>
        <time>2024-07-10T08:35:36Z</time>
      </trkpt>
      <trkpt lat="44.18085" lon="6.64454">
        <ele>1777</ele>
        <time>2024-07-10T08:35:43.499Z</time>
      </trkpt>
      <trkpt lat="44.18082" lon="6.64447">
        <ele>1775.6</ele>
        <time>2024-07-10T08:35:51Z</time>
      </trkpt>
      <trkpt lat="44.1808" lon="6.64436">
        <ele>1773.4</ele>
        <time>2024-07-10T08:35:59.499Z</time>
      </trkpt>
      <trkpt lat="44.18078" lon="6.64424">
        <ele>1771.2</ele>
        <time>2024-07-10T08:36:08Z</time>
      </trkpt>
      <trkpt lat="44.18078" lon="6.64414">
        <ele>1769.8</ele>
        <time>2024-07-10T08:36:14.499Z</time>
      </trkpt>
      <trkpt lat="44.18077" lon="6.64404">
        <ele>1768.3</ele>
        <time>2024-07-10T08:36:21Z</time>
      </trkpt>
      <trkpt lat="44.18078" lon="6.64394">
        <ele>1767.3</ele>
        <time>2024-07-10T08:36:44Z</time>
      </trkpt>
      <trkpt lat="44.18077" lon="6.64389">
        <ele>1766.4</ele>
        <time>2024-07-10T08:37:03Z</time>
      </trkpt>
      <trkpt lat="44.18074" lon="6.64395">
        <ele>1766.4</ele>
        <time>2024-07-10T08:37:31Z</time>
      </trkpt>
      <trkpt lat="44.1807" lon="6.64398">
        <ele>1765.5</ele>
        <time>2024-07-10T08:37:40.499Z</time>
      </trkpt>
      <trkpt lat="44.18065" lon="6.64401">
        <ele>1764.5</ele>
        <time>2024-07-10T08:37:50Z</time>
      </trkpt>
      <trkpt lat="44.18066" lon="6.64394">
        <ele>1764.1</ele>
        <time>2024-07-10T08:37:58.500Z</time>
      </trkpt>
      <trkpt lat="44.18067" lon="6.64386">
        <ele>1763.3</ele>
        <time>2024-07-10T08:38:07Z</time>
      </trkpt>
      <trkpt lat="44.18062" lon="6.64379">
        <ele>1761</ele>
        <time>2024-07-10T08:38:28Z</time>
      </trkpt>
      <trkpt lat="44.18059" lon="6.64384">
        <ele>1761.1</ele>
        <time>2024-07-10T08:38:44Z</time>
      </trkpt>
      <trkpt lat="44.18055" lon="6.64393">
        <ele>1761</ele>
        <time>2024-07-10T08:38:51.999Z</time>
      </trkpt>
      <trkpt lat="44.18051" lon="6.64401">
        <ele>1759.8</ele>
        <time>2024-07-10T08:39:00Z</time>
      </trkpt>
      <trkpt lat="44.18047" lon="6.64406">
        <ele>1758.1</ele>
        <time>2024-07-10T08:39:06.499Z</time>
      </trkpt>
      <trkpt lat="44.18043" lon="6.6441">
        <ele>1756.4</ele>
        <time>2024-07-10T08:39:13Z</time>
      </trkpt>
      <trkpt lat="44.18039" lon="6.64407">
        <ele>1754.4</ele>
        <time>2024-07-10T08:39:22.499Z</time>
      </trkpt>
      <trkpt lat="44.18035" lon="6.64403">
        <ele>1752.4</ele>
        <time>2024-07-10T08:39:32Z</time>
      </trkpt>
      <trkpt lat="44.18035" lon="6.64393">
        <ele>1752</ele>
        <time>2024-07-10T08:39:39.499Z</time>
      </trkpt>
      <trkpt lat="44.18034" lon="6.64383">
        <ele>1751</ele>
        <time>2024-07-10T08:39:47Z</time>
      </trkpt>
      <trkpt lat="44.18029" lon="6.64382">
        <ele>1748.8</ele>
        <time>2024-07-10T08:40:16Z</time>
      </trkpt>
      <trkpt lat="44.1803" lon="6.64377">
        <ele>1748.6</ele>
        <time>2024-07-10T08:40:36Z</time>
      </trkpt>
      <trkpt lat="44.18029" lon="6.64377">
        <ele>1748.2</ele>
        <time>2024-07-10T08:40:54Z</time>
      </trkpt>
      <trkpt lat="44.18031" lon="6.64372">
        <ele>1748.5</ele>
        <time>2024-07-10T08:41:24Z</time>
      </trkpt>
      <trkpt lat="44.18033" lon="6.64372">
        <ele>1749.3</ele>
        <time>2024-07-10T08:42:02Z</time>
      </trkpt>
      <trkpt lat="44.18041" lon="6.64369">
        <ele>1752.2</ele>
        <time>2024-07-10T08:42:32Z</time>
      </trkpt>
      <trkpt lat="44.18038" lon="6.64362">
        <ele>1750.2</ele>
        <time>2024-07-10T08:42:56Z</time>
      </trkpt>
      <trkpt lat="44.18034" lon="6.64357">
        <ele>1747.3</ele>
        <time>2024-07-10T08:43:22Z</time>
      </trkpt>
      <trkpt lat="44.18029" lon="6.64362">
        <ele>1746.3</ele>
        <time>2024-07-10T08:43:30.999Z</time>
      </trkpt>
      <trkpt lat="44.18023" lon="6.64366">
        <ele>1744.2</ele>
        <time>2024-07-10T08:43:40Z</time>
      </trkpt>
      <trkpt lat="44.18024" lon="6.64356">
        <ele>1742.8</ele>
        <time>2024-07-10T08:43:47.000Z</time>
      </trkpt>
      <trkpt lat="44.18024" lon="6.64346">
        <ele>1740.6</ele>
        <time>2024-07-10T08:43:54Z</time>
      </trkpt>
      <trkpt lat="44.18025" lon="6.64338">
        <ele>1738.9</ele>
        <time>2024-07-10T08:44:01.500Z</time>
      </trkpt>
      <trkpt lat="44.18025" lon="6.6433">
        <ele>1736.6</ele>
        <time>2024-07-10T08:44:09Z</time>
      </trkpt>
      <trkpt lat="44.18018" lon="6.64328">
        <ele>1733.4</ele>
        <time>2024-07-10T08:44:26Z</time>
      </trkpt>
      <trkpt lat="44.18014" lon="6.64337">
        <ele>1734.8</ele>
        <time>2024-07-10T08:44:43Z</time>
      </trkpt>
      <trkpt lat="44.18007" lon="6.64339">
        <ele>1732.3</ele>
        <time>2024-07-10T08:44:50.999Z</time>
      </trkpt>
      <trkpt lat="44.17999" lon="6.64341">
        <ele>1729.6</ele>
        <time>2024-07-10T08:44:59Z</time>
      </trkpt>
      <trkpt lat="44.17998" lon="6.64332">
        <ele>1727.6</ele>
        <time>2024-07-10T08:45:05.999Z</time>
      </trkpt>
      <trkpt lat="44.17997" lon="6.64323">
        <ele>1724.6</ele>
        <time>2024-07-10T08:45:13Z</time>
      </trkpt>
      <trkpt lat="44.18" lon="6.64315">
        <ele>1723.5</ele>
        <time>2024-07-10T08:45:19.500Z</time>
      </trkpt>
      <trkpt lat="44.18002" lon="6.64307">
        <ele>1721.9</ele>
        <time>2024-07-10T08:45:26Z</time>
      </trkpt>
      <trkpt lat="44.18005" lon="6.64301">
        <ele>1720.4</ele>
        <time>2024-07-10T08:45:44Z</time>
      </trkpt>
      <trkpt lat="44.18002" lon="6.64296">
        <ele>1717.8</ele>
        <time>2024-07-10T08:45:52.999Z</time>
      </trkpt>
      <trkpt lat="44.17998" lon="6.64291">
        <ele>1715.1</ele>
        <time>2024-07-10T08:46:02Z</time>
      </trkpt>
      <trkpt lat="44.18" lon="6.64283">
        <ele>1712.9</ele>
        <time>2024-07-10T08:46:09.500Z</time>
      </trkpt>
      <trkpt lat="44.18002" lon="6.64275">
        <ele>1710.3</ele>
        <time>2024-07-10T08:46:17Z</time>
      </trkpt>
      <trkpt lat="44.17996" lon="6.64269">
        <ele>1707.1</ele>
        <time>2024-07-10T08:46:37Z</time>
      </trkpt>
      <trkpt lat="44.17993" lon="6.64262">
        <ele>1704.3</ele>
        <time>2024-07-10T08:46:55Z</time>
      </trkpt>
      <trkpt lat="44.17985" lon="6.64259">
        <ele>1701.7</ele>
        <time>2024-07-10T08:47:14Z</time>
      </trkpt>
      <trkpt lat="44.17981" lon="6.64264">
        <ele>1702</ele>
        <time>2024-07-10T08:47:22.999Z</time>
      </trkpt>
      <trkpt lat="44.17976" lon="6.64269">
        <ele>1702.1</ele>
        <time>2024-07-10T08:47:32Z</time>
      </trkpt>
      <trkpt lat="44.17974" lon="6.64281">
        <ele>1704.3</ele>
        <time>2024-07-10T08:47:47Z</time>
      </trkpt>
      <trkpt lat="44.17966" lon="6.64286">
        <ele>1701.4</ele>
        <time>2024-07-10T08:48:02Z</time>
      </trkpt>
      <trkpt lat="44.17967" lon="6.64279">
        <ele>1700</ele>
        <time>2024-07-10T08:48:08.000Z</time>
      </trkpt>
      <trkpt lat="44.17967" lon="6.64272">
        <ele>1698.9</ele>
        <time>2024-07-10T08:48:14Z</time>
      </trkpt>
      <trkpt lat="44.17967" lon="6.64261">
        <ele>1696.4</ele>
        <time>2024-07-10T08:48:21.999Z</time>
      </trkpt>
      <trkpt lat="44.17966" lon="6.64249">
        <ele>1694</ele>
        <time>2024-07-10T08:48:30Z</time>
      </trkpt>
      <trkpt lat="44.17967" lon="6.64242">
        <ele>1693.5</ele>
        <time>2024-07-10T08:48:41.000Z</time>
      </trkpt>
      <trkpt lat="44.17968" lon="6.64234">
        <ele>1693</ele>
        <time>2024-07-10T08:48:52Z</time>
      </trkpt>
      <trkpt lat="44.1797" lon="6.64227">
        <ele>1692.8</ele>
        <time>2024-07-10T08:48:57.500Z</time>
      </trkpt>
      <trkpt lat="44.17972" lon="6.6422">
        <ele>1692.6</ele>
        <time>2024-07-10T08:49:03Z</time>
      </trkpt>
      <trkpt lat="44.1797" lon="6.64211">
        <ele>1690.6</ele>
        <time>2024-07-10T08:49:25Z</time>
      </trkpt>
      <trkpt lat="44.17969" lon="6.6421">
        <ele>1690.2</ele>
        <time>2024-07-10T08:49:42Z</time>
      </trkpt>
      <trkpt lat="44.1797" lon="6.64213">
        <ele>1690.9</ele>
        <time>2024-07-10T08:50:01Z</time>
      </trkpt>
      <trkpt lat="44.17972" lon="6.64205">
        <ele>1690.4</ele>
        <time>2024-07-10T08:50:10.000Z</time>
      </trkpt>
      <trkpt lat="44.17974" lon="6.64197">
        <ele>1689.4</ele>
        <time>2024-07-10T08:50:19Z</time>
      </trkpt>
      <trkpt lat="44.17982" lon="6.64201">
        <ele>1690.4</ele>
        <time>2024-07-10T08:50:41Z</time>
      </trkpt>
      <trkpt lat="44.1799" lon="6.64196">
        <ele>1689.9</ele>
        <time>2024-07-10T08:51:01Z</time>
      </trkpt>
      <trkpt lat="44.17996" lon="6.6419">
        <ele>1688.9</ele>
        <time>2024-07-10T08:51:08.500Z</time>
      </trkpt>
      <trkpt lat="44.18001" lon="6.64184">
        <ele>1687.5</ele>
        <time>2024-07-10T08:51:16Z</time>
      </trkpt>
      <trkpt lat="44.17996" lon="6.64189">
        <ele>1688.6</ele>
        <time>2024-07-10T08:51:23.499Z</time>
      </trkpt>
      <trkpt lat="44.1799" lon="6.64193">
        <ele>1689.4</ele>
        <time>2024-07-10T08:51:31Z</time>
      </trkpt>
      <trkpt lat="44.17983" lon="6.64189">
        <ele>1688.5</ele>
        <time>2024-07-10T08:51:48Z</time>
      </trkpt>
      <trkpt lat="44.17978" lon="6.6419">
        <ele>1688.5</ele>
        <time>2024-07-10T08:52:07Z</time>
      </trkpt>
      <trkpt lat="44.17972" lon="6.64186">
        <ele>1687.7</ele>
        <time>2024-07-10T08:52:27Z</time>
      </trkpt>
      <trkpt lat="44.1797" lon="6.6418">
        <ele>1686.3</ele>
        <time>2024-07-10T08:52:36.499Z</time>
      </trkpt>
      <trkpt lat="44.17967" lon="6.64174">
        <ele>1685</ele>
        <time>2024-07-10T08:52:46Z</time>
      </trkpt>
      <trkpt lat="44.17966" lon="6.64166">
        <ele>1683.7</ele>
        <time>2024-07-10T08:52:53.999Z</time>
      </trkpt>
      <trkpt lat="44.17964" lon="6.64158">
        <ele>1682.8</ele>
        <time>2024-07-10T08:53:02Z</time>
      </trkpt>
      <trkpt lat="44.17963" lon="6.64151">
        <ele>1682</ele>
        <time>2024-07-10T08:53:07.999Z</time>
      </trkpt>
      <trkpt lat="44.17961" lon="6.64144">
        <ele>1681.2</ele>
        <time>2024-07-10T08:53:14Z</time>
      </trkpt>
      <trkpt lat="44.17959" lon="6.64138">
        <ele>1680.5</ele>
        <time>2024-07-10T08:53:20.499Z</time>
      </trkpt>
      <trkpt lat="44.17956" lon="6.64132">
        <ele>1679.8</ele>
        <time>2024-07-10T08:53:27Z</time>
      </trkpt>
      <trkpt lat="44.17952" lon="6.64127">
        <ele>1679.1</ele>
        <time>2024-07-10T08:53:33.499Z</time>
      </trkpt>
      <trkpt lat="44.17948" lon="6.64121">
        <ele>1678.6</ele>
        <time>2024-07-10T08:53:40Z</time>
      </trkpt>
      <trkpt lat="44.17947" lon="6.64115">
        <ele>1678.2</ele>
        <time>2024-07-10T08:53:47.499Z</time>
      </trkpt>
      <trkpt lat="44.17945" lon="6.64109">
        <ele>1678.1</ele>
        <time>2024-07-10T08:53:55Z</time>
      </trkpt>
      <trkpt lat="44.17938" lon="6.64104">
        <ele>1675.6</ele>
        <time>2024-07-10T08:54:18Z</time>
      </trkpt>
      <trkpt lat="44.17934" lon="6.64102">
        <ele>1673.9</ele>
        <time>2024-07-10T08:54:24.499Z</time>
      </trkpt>
      <trkpt lat="44.17929" lon="6.641">
        <ele>1672.2</ele>
        <time>2024-07-10T08:54:31Z</time>
      </trkpt>
      <trkpt lat="44.17924" lon="6.6409">
        <ele>1671</ele>
        <time>2024-07-10T08:54:45Z</time>
      </trkpt>
      <trkpt lat="44.17924" lon="6.64082">
        <ele>1671.3</ele>
        <time>2024-07-10T08:54:52.999Z</time>
      </trkpt>
      <trkpt lat="44.17923" lon="6.64074">
        <ele>1670.4</ele>
        <time>2024-07-10T08:55:01Z</time>
      </trkpt>
      <trkpt lat="44.17928" lon="6.64074">
        <ele>1672</ele>
        <time>2024-07-10T08:55:18Z</time>
      </trkpt>
      <trkpt lat="44.17934" lon="6.64074">
        <ele>1673.7</ele>
        <time>2024-07-10T08:55:25.500Z</time>
      </trkpt>
      <trkpt lat="44.17939" lon="6.64073">
        <ele>1675.4</ele>
        <time>2024-07-10T08:55:33Z</time>
      </trkpt>
      <trkpt lat="44.17943" lon="6.64068">
        <ele>1675.8</ele>
        <time>2024-07-10T08:55:54Z</time>
      </trkpt>
      <trkpt lat="44.17942" lon="6.64061">
        <ele>1674.3</ele>
        <time>2024-07-10T08:56:06.499Z</time>
      </trkpt>
      <trkpt lat="44.17941" lon="6.64054">
        <ele>1672.2</ele>
        <time>2024-07-10T08:56:19Z</time>
      </trkpt>
      <trkpt lat="44.17943" lon="6.64048">
        <ele>1669.2</ele>
        <time>2024-07-10T08:56:27.000Z</time>
      </trkpt>
      <trkpt lat="44.17945" lon="6.64042">
        <ele>1666.1</ele>
        <time>2024-07-10T08:56:35Z</time>
      </trkpt>
      <trkpt lat="44.17944" lon="6.64035">
        <ele>1662</ele>
        <time>2024-07-10T08:57:05Z</time>
      </trkpt>
      <trkpt lat="44.17944" lon="6.64034">
        <ele>1661.4</ele>
        <time>2024-07-10T09:00:38Z</time>
      </trkpt>
      <trkpt lat="44.17944" lon="6.64033">
        <ele>1660.8</ele>
        <time>2024-07-10T09:09:34Z</time>
      </trkpt>
      <trkpt lat="44.17945" lon="6.64033">
        <ele>1661</ele>
        <time>2024-07-10T09:15:45Z</time>
      </trkpt>
      <trkpt lat="44.17949" lon="6.64037">
        <ele>1662.8</ele>
        <time>2024-07-10T09:16:31Z</time>
      </trkpt>
      <trkpt lat="44.17948" lon="6.64045">
        <ele>1667</ele>
        <time>2024-07-10T09:16:39.499Z</time>
      </trkpt>
      <trkpt lat="44.17947" lon="6.64052">
        <ele>1671.3</ele>
        <time>2024-07-10T09:16:48Z</time>
      </trkpt>
      <trkpt lat="44.17949" lon="6.64059">
        <ele>1673.5</ele>
        <time>2024-07-10T09:16:55.500Z</time>
      </trkpt>
      <trkpt lat="44.1795" lon="6.64066">
        <ele>1674.4</ele>
        <time>2024-07-10T09:17:03Z</time>
      </trkpt>
      <trkpt lat="44.17947" lon="6.6407">
        <ele>1676.1</ele>
        <time>2024-07-10T09:17:11.499Z</time>
      </trkpt>
      <trkpt lat="44.17943" lon="6.64074">
        <ele>1676.9</ele>
        <time>2024-07-10T09:17:20Z</time>
      </trkpt>
      <trkpt lat="44.17937" lon="6.64073">
        <ele>1674.5</ele>
        <time>2024-07-10T09:17:27.000Z</time>
      </trkpt>
      <trkpt lat="44.1793" lon="6.64071">
        <ele>1672.3</ele>
        <time>2024-07-10T09:17:34Z</time>
      </trkpt>
      <trkpt lat="44.17926" lon="6.64076">
        <ele>1671.6</ele>
        <time>2024-07-10T09:17:50Z</time>
      </trkpt>
      <trkpt lat="44.17929" lon="6.64082">
        <ele>1673.1</ele>
        <time>2024-07-10T09:17:56.500Z</time>
      </trkpt>
      <trkpt lat="44.17931" lon="6.64088">
        <ele>1673.8</ele>
        <time>2024-07-10T09:18:03Z</time>
      </trkpt>
      <trkpt lat="44.17937" lon="6.64097">
        <ele>1675.6</ele>
        <time>2024-07-10T09:18:19Z</time>
      </trkpt>
      <trkpt lat="44.17943" lon="6.641">
        <ele>1677.8</ele>
        <time>2024-07-10T09:18:28.500Z</time>
      </trkpt>
      <trkpt lat="44.17949" lon="6.64103">
        <ele>1678.1</ele>
        <time>2024-07-10T09:18:38Z</time>
      </trkpt>
      <trkpt lat="44.17954" lon="6.64108">
        <ele>1678.2</ele>
        <time>2024-07-10T09:18:45.500Z</time>
      </trkpt>
      <trkpt lat="44.17958" lon="6.64113">
        <ele>1678.6</ele>
        <time>2024-07-10T09:18:53Z</time>
      </trkpt>
      <trkpt lat="44.17963" lon="6.64116">
        <ele>1679.1</ele>
        <time>2024-07-10T09:19:03.000Z</time>
      </trkpt>
      <trkpt lat="44.17967" lon="6.64119">
        <ele>1679.6</ele>
        <time>2024-07-10T09:19:13Z</time>
      </trkpt>
      <trkpt lat="44.17974" lon="6.6412">
        <ele>1679.5</ele>
        <time>2024-07-10T09:19:20.000Z</time>
      </trkpt>
      <trkpt lat="44.17981" lon="6.64121">
        <ele>1677.7</ele>
        <time>2024-07-10T09:19:27Z</time>
      </trkpt>
      <trkpt lat="44.17988" lon="6.6412">
        <ele>1675.5</ele>
        <time>2024-07-10T09:19:35.500Z</time>
      </trkpt>
      <trkpt lat="44.17995" lon="6.64118">
        <ele>1673.2</ele>
        <time>2024-07-10T09:19:44Z</time>
      </trkpt>
      <trkpt lat="44.18001" lon="6.64118">
        <ele>1671.4</ele>
        <time>2024-07-10T09:19:52.000Z</time>
      </trkpt>
      <trkpt lat="44.18007" lon="6.64118">
        <ele>1669.3</ele>
        <time>2024-07-10T09:20:00Z</time>
      </trkpt>
      <trkpt lat="44.18002" lon="6.64117">
        <ele>1670.8</ele>
        <time>2024-07-10T09:20:07.000Z</time>
      </trkpt>
      <trkpt lat="44.17997" lon="6.64116">
        <ele>1672.1</ele>
        <time>2024-07-10T09:20:14Z</time>
      </trkpt>
      <trkpt lat="44.17992" lon="6.64112">
        <ele>1672.8</ele>
        <time>2024-07-10T09:20:20.999Z</time>
      </trkpt>
      <trkpt lat="44.17987" lon="6.64108">
        <ele>1673.4</ele>
        <time>2024-07-10T09:20:28Z</time>
      </trkpt>
      <trkpt lat="44.17984" lon="6.64102">
        <ele>1672.8</ele>
        <time>2024-07-10T09:20:35.499Z</time>
      </trkpt>
      <trkpt lat="44.17981" lon="6.64095">
        <ele>1672.3</ele>
        <time>2024-07-10T09:20:43Z</time>
      </trkpt>
      <trkpt lat="44.1798" lon="6.64089">
        <ele>1671.3</ele>
        <time>2024-07-10T09:20:49.999Z</time>
      </trkpt>
      <trkpt lat="44.17978" lon="6.64082">
        <ele>1670.4</ele>
        <time>2024-07-10T09:20:57Z</time>
      </trkpt>
      <trkpt lat="44.17982" lon="6.64076">
        <ele>1667.2</ele>
        <time>2024-07-10T09:21:13Z</time>
      </trkpt>
      <trkpt lat="44.17987" lon="6.64076">
        <ele>1665</ele>
        <time>2024-07-10T09:21:20.000Z</time>
      </trkpt>
      <trkpt lat="44.17992" lon="6.64075">
        <ele>1662.9</ele>
        <time>2024-07-10T09:21:27Z</time>
      </trkpt>
      <trkpt lat="44.17994" lon="6.64072">
        <ele>1661.2</ele>
        <time>2024-07-10T09:21:41Z</time>
      </trkpt>
      <trkpt lat="44.18" lon="6.64072">
        <ele>1658.7</ele>
        <time>2024-07-10T09:21:55Z</time>
      </trkpt>
      <trkpt lat="44.18007" lon="6.64072">
        <ele>1655.9</ele>
        <time>2024-07-10T09:22:03.000Z</time>
      </trkpt>
      <trkpt lat="44.18013" lon="6.64071">
        <ele>1653.1</ele>
        <time>2024-07-10T09:22:11Z</time>
      </trkpt>
      <trkpt lat="44.18019" lon="6.64071">
        <ele>1650.6</ele>
        <time>2024-07-10T09:22:17.500Z</time>
      </trkpt>
      <trkpt lat="44.18025" lon="6.64071">
        <ele>1648.1</ele>
        <time>2024-07-10T09:22:24Z</time>
      </trkpt>
      <trkpt lat="44.1803" lon="6.64071">
        <ele>1646</ele>
        <time>2024-07-10T09:22:31.000Z</time>
      </trkpt>
      <trkpt lat="44.18035" lon="6.64071">
        <ele>1643.8</ele>
        <time>2024-07-10T09:22:38Z</time>
      </trkpt>
      <trkpt lat="44.18041" lon="6.64073">
        <ele>1641.8</ele>
        <time>2024-07-10T09:22:46.000Z</time>
      </trkpt>
      <trkpt lat="44.18046" lon="6.64074">
        <ele>1639.9</ele>
        <time>2024-07-10T09:22:54Z</time>
      </trkpt>
      <trkpt lat="44.18052" lon="6.64075">
        <ele>1637.6</ele>
        <time>2024-07-10T09:23:01.000Z</time>
      </trkpt>
      <trkpt lat="44.18058" lon="6.64076">
        <ele>1635.2</ele>
        <time>2024-07-10T09:23:08Z</time>
      </trkpt>
      <trkpt lat="44.18064" lon="6.64075">
        <ele>1631.8</ele>
        <time>2024-07-10T09:23:15.500Z</time>
      </trkpt>
      <trkpt lat="44.1807" lon="6.64074">
        <ele>1628.5</ele>
        <time>2024-07-10T09:23:23Z</time>
      </trkpt>
      <trkpt lat="44.18076" lon="6.64077">
        <ele>1626.7</ele>
        <time>2024-07-10T09:23:29.000Z</time>
      </trkpt>
      <trkpt lat="44.18081" lon="6.64079">
        <ele>1624.8</ele>
        <time>2024-07-10T09:23:35Z</time>
      </trkpt>
      <trkpt lat="44.18076" lon="6.64079">
        <ele>1627.3</ele>
        <time>2024-07-10T09:23:42.000Z</time>
      </trkpt>
      <trkpt lat="44.18071" lon="6.64079">
        <ele>1629.7</ele>
        <time>2024-07-10T09:23:49Z</time>
      </trkpt>
      <trkpt lat="44.18066" lon="6.64078">
        <ele>1632</ele>
        <time>2024-07-10T09:23:55.000Z</time>
      </trkpt>
      <trkpt lat="44.1806" lon="6.64076">
        <ele>1634.2</ele>
        <time>2024-07-10T09:24:01Z</time>
      </trkpt>
      <trkpt lat="44.18055" lon="6.64072">
        <ele>1635.2</ele>
        <time>2024-07-10T09:24:08.499Z</time>
      </trkpt>
      <trkpt lat="44.1805" lon="6.64068">
        <ele>1636</ele>
        <time>2024-07-10T09:24:16Z</time>
      </trkpt>
      <trkpt lat="44.18047" lon="6.64064">
        <ele>1636.2</ele>
        <time>2024-07-10T09:24:23.499Z</time>
      </trkpt>
      <trkpt lat="44.18043" lon="6.6406">
        <ele>1636.4</ele>
        <time>2024-07-10T09:24:31Z</time>
      </trkpt>
      <trkpt lat="44.18038" lon="6.64055">
        <ele>1636.9</ele>
        <time>2024-07-10T09:24:38.499Z</time>
      </trkpt>
      <trkpt lat="44.18033" lon="6.64049">
        <ele>1637.7</ele>
        <time>2024-07-10T09:24:46Z</time>
      </trkpt>
      <trkpt lat="44.1803" lon="6.64044">
        <ele>1637.6</ele>
        <time>2024-07-10T09:24:52.499Z</time>
      </trkpt>
      <trkpt lat="44.18027" lon="6.64039">
        <ele>1637.6</ele>
        <time>2024-07-10T09:24:59Z</time>
      </trkpt>
      <trkpt lat="44.18032" lon="6.64038">
        <ele>1634.8</ele>
        <time>2024-07-10T09:25:08.500Z</time>
      </trkpt>
      <trkpt lat="44.18037" lon="6.64036">
        <ele>1632.1</ele>
        <time>2024-07-10T09:25:18Z</time>
      </trkpt>
      <trkpt lat="44.18042" lon="6.64037">
        <ele>1630.2</ele>
        <time>2024-07-10T09:25:25.500Z</time>
      </trkpt>
      <trkpt lat="44.18046" lon="6.64038">
        <ele>1628.4</ele>
        <time>2024-07-10T09:25:33Z</time>
      </trkpt>
      <trkpt lat="44.18054" lon="6.6404">
        <ele>1625.2</ele>
        <time>2024-07-10T09:25:41.500Z</time>
      </trkpt>
      <trkpt lat="44.18062" lon="6.64042">
        <ele>1622</ele>
        <time>2024-07-10T09:25:50Z</time>
      </trkpt>
      <trkpt lat="44.18069" lon="6.64045">
        <ele>1619.6</ele>
        <time>2024-07-10T09:25:57.500Z</time>
      </trkpt>
      <trkpt lat="44.18075" lon="6.64047">
        <ele>1617.2</ele>
        <time>2024-07-10T09:26:05Z</time>
      </trkpt>
      <trkpt lat="44.18082" lon="6.64051">
        <ele>1615.2</ele>
        <time>2024-07-10T09:26:13.000Z</time>
      </trkpt>
      <trkpt lat="44.18089" lon="6.64055">
        <ele>1613</ele>
        <time>2024-07-10T09:26:21Z</time>
      </trkpt>
      <trkpt lat="44.18094" lon="6.64057">
        <ele>1611.1</ele>
        <time>2024-07-10T09:26:27.000Z</time>
      </trkpt>
      <trkpt lat="44.18099" lon="6.64059">
        <ele>1609.2</ele>
        <time>2024-07-10T09:26:33Z</time>
      </trkpt>
      <trkpt lat="44.18106" lon="6.64063">
        <ele>1606.8</ele>
        <time>2024-07-10T09:26:40.500Z</time>
      </trkpt>
      <trkpt lat="44.18113" lon="6.64066">
        <ele>1604.5</ele>
        <time>2024-07-10T09:26:48Z</time>
      </trkpt>
      <trkpt lat="44.18119" lon="6.6407">
        <ele>1603.1</ele>
        <time>2024-07-10T09:26:55.500Z</time>
      </trkpt>
      <trkpt lat="44.18125" lon="6.64074">
        <ele>1601.6</ele>
        <time>2024-07-10T09:27:03Z</time>
      </trkpt>
      <trkpt lat="44.1813" lon="6.64076">
        <ele>1600</ele>
        <time>2024-07-10T09:27:22Z</time>
      </trkpt>
      <trkpt lat="44.18129" lon="6.64068">
        <ele>1598</ele>
        <time>2024-07-10T09:27:34Z</time>
      </trkpt>
      <trkpt lat="44.18134" lon="6.64068">
        <ele>1596</ele>
        <time>2024-07-10T09:27:39.000Z</time>
      </trkpt>
      <trkpt lat="44.18138" lon="6.64068">
        <ele>1594</ele>
        <time>2024-07-10T09:27:44Z</time>
      </trkpt>
      <trkpt lat="44.18143" lon="6.64069">
        <ele>1592.3</ele>
        <time>2024-07-10T09:27:50.000Z</time>
      </trkpt>
      <trkpt lat="44.18147" lon="6.64069">
        <ele>1590.7</ele>
        <time>2024-07-10T09:27:56Z</time>
      </trkpt>
      <trkpt lat="44.18142" lon="6.64069">
        <ele>1592.5</ele>
        <time>2024-07-10T09:28:03.000Z</time>
      </trkpt>
      <trkpt lat="44.18137" lon="6.64068">
        <ele>1594.4</ele>
        <time>2024-07-10T09:28:10Z</time>
      </trkpt>
      <trkpt lat="44.18133" lon="6.64058">
        <ele>1593.3</ele>
        <time>2024-07-10T09:28:27Z</time>
      </trkpt>
      <trkpt lat="44.1814" lon="6.64059">
        <ele>1590.7</ele>
        <time>2024-07-10T09:28:33.000Z</time>
      </trkpt>
      <trkpt lat="44.18146" lon="6.6406">
        <ele>1588.5</ele>
        <time>2024-07-10T09:28:39Z</time>
      </trkpt>
      <trkpt lat="44.1815" lon="6.64064">
        <ele>1587.9</ele>
        <time>2024-07-10T09:28:43.500Z</time>
      </trkpt>
      <trkpt lat="44.18154" lon="6.64067">
        <ele>1587.3</ele>
        <time>2024-07-10T09:28:48Z</time>
      </trkpt>
      <trkpt lat="44.18161" lon="6.64071">
        <ele>1585.7</ele>
        <time>2024-07-10T09:28:59Z</time>
      </trkpt>
      <trkpt lat="44.18164" lon="6.64076">
        <ele>1585.9</ele>
        <time>2024-07-10T09:29:05.500Z</time>
      </trkpt>
      <trkpt lat="44.18167" lon="6.64081">
        <ele>1586.2</ele>
        <time>2024-07-10T09:29:12Z</time>
      </trkpt>
      <trkpt lat="44.18174" lon="6.64082">
        <ele>1584.3</ele>
        <time>2024-07-10T09:29:30Z</time>
      </trkpt>
      <trkpt lat="44.1818" lon="6.64088">
        <ele>1584</ele>
        <time>2024-07-10T09:29:40.000Z</time>
      </trkpt>
      <trkpt lat="44.18186" lon="6.64094">
        <ele>1583.8</ele>
        <time>2024-07-10T09:29:50Z</time>
      </trkpt>
      <trkpt lat="44.18189" lon="6.64105">
        <ele>1586</ele>
        <time>2024-07-10T09:30:03Z</time>
      </trkpt>
      <trkpt lat="44.18193" lon="6.64115">
        <ele>1587.6</ele>
        <time>2024-07-10T09:30:18Z</time>
      </trkpt>
      <trkpt lat="44.182" lon="6.64118">
        <ele>1586.6</ele>
        <time>2024-07-10T09:30:25.500Z</time>
      </trkpt>
      <trkpt lat="44.18207" lon="6.6412">
        <ele>1585.7</ele>
        <time>2024-07-10T09:30:33Z</time>
      </trkpt>
      <trkpt lat="44.18213" lon="6.64119">
        <ele>1584.1</ele>
        <time>2024-07-10T09:30:40.500Z</time>
      </trkpt>
      <trkpt lat="44.18219" lon="6.64118">
        <ele>1582.5</ele>
        <time>2024-07-10T09:30:48Z</time>
      </trkpt>
      <trkpt lat="44.18215" lon="6.64126">
        <ele>1585.5</ele>
        <time>2024-07-10T09:31:02Z</time>
      </trkpt>
      <trkpt lat="44.18216" lon="6.64117">
        <ele>1582.9</ele>
        <time>2024-07-10T09:31:15Z</time>
      </trkpt>
      <trkpt lat="44.18217" lon="6.6411">
        <ele>1580.9</ele>
        <time>2024-07-10T09:31:22.500Z</time>
      </trkpt>
      <trkpt lat="44.18217" lon="6.64103">
        <ele>1579</ele>
        <time>2024-07-10T09:31:30Z</time>
      </trkpt>
      <trkpt lat="44.18222" lon="6.64099">
        <ele>1576.9</ele>
        <time>2024-07-10T09:31:35.500Z</time>
      </trkpt>
      <trkpt lat="44.18227" lon="6.64094">
        <ele>1575.3</ele>
        <time>2024-07-10T09:31:41Z</time>
      </trkpt>
      <trkpt lat="44.18231" lon="6.64084">
        <ele>1572.5</ele>
        <time>2024-07-10T09:31:54Z</time>
      </trkpt>
      <trkpt lat="44.18236" lon="6.64084">
        <ele>1572</ele>
        <time>2024-07-10T09:32:00.500Z</time>
      </trkpt>
      <trkpt lat="44.18241" lon="6.64083">
        <ele>1571.6</ele>
        <time>2024-07-10T09:32:07Z</time>
      </trkpt>
      <trkpt lat="44.18249" lon="6.64086">
        <ele>1571.6</ele>
        <time>2024-07-10T09:32:14.000Z</time>
      </trkpt>
      <trkpt lat="44.18257" lon="6.64088">
        <ele>1572.1</ele>
        <time>2024-07-10T09:32:21Z</time>
      </trkpt>
      <trkpt lat="44.18262" lon="6.6409">
        <ele>1572.6</ele>
        <time>2024-07-10T09:32:27.500Z</time>
      </trkpt>
      <trkpt lat="44.18267" lon="6.64092">
        <ele>1573</ele>
        <time>2024-07-10T09:32:34Z</time>
      </trkpt>
      <trkpt lat="44.18274" lon="6.64093">
        <ele>1573.1</ele>
        <time>2024-07-10T09:32:41.000Z</time>
      </trkpt>
      <trkpt lat="44.1828" lon="6.64094">
        <ele>1573.2</ele>
        <time>2024-07-10T09:32:48Z</time>
      </trkpt>
      <trkpt lat="44.18285" lon="6.64092">
        <ele>1572.6</ele>
        <time>2024-07-10T09:32:55.500Z</time>
      </trkpt>
      <trkpt lat="44.1829" lon="6.6409">
        <ele>1572</ele>
        <time>2024-07-10T09:33:03Z</time>
      </trkpt>
      <trkpt lat="44.18295" lon="6.64091">
        <ele>1571.9</ele>
        <time>2024-07-10T09:33:09.000Z</time>
      </trkpt>
      <trkpt lat="44.183" lon="6.64091">
        <ele>1571.9</ele>
        <time>2024-07-10T09:33:15Z</time>
      </trkpt>
      <trkpt lat="44.18306" lon="6.64093">
        <ele>1572</ele>
        <time>2024-07-10T09:33:21.500Z</time>
      </trkpt>
      <trkpt lat="44.18311" lon="6.64094">
        <ele>1572.5</ele>
        <time>2024-07-10T09:33:28Z</time>
      </trkpt>
      <trkpt lat="44.18316" lon="6.64097">
        <ele>1573.3</ele>
        <time>2024-07-10T09:33:35.500Z</time>
      </trkpt>
      <trkpt lat="44.18321" lon="6.641">
        <ele>1574.2</ele>
        <time>2024-07-10T09:33:43Z</time>
      </trkpt>
      <trkpt lat="44.18327" lon="6.641">
        <ele>1574.4</ele>
        <time>2024-07-10T09:33:58Z</time>
      </trkpt>
      <trkpt lat="44.18329" lon="6.64089">
        <ele>1572.1</ele>
        <time>2024-07-10T09:34:15Z</time>
      </trkpt>
      <trkpt lat="44.18335" lon="6.64092">
        <ele>1572.8</ele>
        <time>2024-07-10T09:34:22.500Z</time>
      </trkpt>
      <trkpt lat="44.1834" lon="6.64094">
        <ele>1573.8</ele>
        <time>2024-07-10T09:34:30Z</time>
      </trkpt>
      <trkpt lat="44.18345" lon="6.64098">
        <ele>1575</ele>
        <time>2024-07-10T09:34:37.000Z</time>
      </trkpt>
      <trkpt lat="44.18349" lon="6.64102">
        <ele>1576.2</ele>
        <time>2024-07-10T09:34:44Z</time>
      </trkpt>
      <trkpt lat="44.18354" lon="6.64104">
        <ele>1577</ele>
        <time>2024-07-10T09:34:50.000Z</time>
      </trkpt>
      <trkpt lat="44.18359" lon="6.64106">
        <ele>1577.7</ele>
        <time>2024-07-10T09:34:56Z</time>
      </trkpt>
      <trkpt lat="44.18364" lon="6.64108">
        <ele>1578.4</ele>
        <time>2024-07-10T09:35:07.000Z</time>
      </trkpt>
      <trkpt lat="44.18369" lon="6.6411">
        <ele>1579</ele>
        <time>2024-07-10T09:35:18Z</time>
      </trkpt>
      <trkpt lat="44.1837" lon="6.64107">
        <ele>1578.4</ele>
        <time>2024-07-10T09:35:48Z</time>
      </trkpt>
      <trkpt lat="44.1837" lon="6.641">
        <ele>1576.8</ele>
        <time>2024-07-10T09:35:56.499Z</time>
      </trkpt>
      <trkpt lat="44.18369" lon="6.64092">
        <ele>1575.2</ele>
        <time>2024-07-10T09:36:05Z</time>
      </trkpt>
      <trkpt lat="44.18363" lon="6.64085">
        <ele>1573.4</ele>
        <time>2024-07-10T09:36:22Z</time>
      </trkpt>
      <trkpt lat="44.18367" lon="6.64078">
        <ele>1571.9</ele>
        <time>2024-07-10T09:36:30.500Z</time>
      </trkpt>
      <trkpt lat="44.18371" lon="6.64071">
        <ele>1570.4</ele>
        <time>2024-07-10T09:36:39Z</time>
      </trkpt>
      <trkpt lat="44.18376" lon="6.64072">
        <ele>1570.8</ele>
        <time>2024-07-10T09:36:47.000Z</time>
      </trkpt>
      <trkpt lat="44.1838" lon="6.64072">
        <ele>1571.1</ele>
        <time>2024-07-10T09:36:55Z</time>
      </trkpt>
      <trkpt lat="44.18386" lon="6.64071">
        <ele>1571</ele>
        <time>2024-07-10T09:37:00.500Z</time>
      </trkpt>
      <trkpt lat="44.18391" lon="6.64069">
        <ele>1570.7</ele>
        <time>2024-07-10T09:37:06Z</time>
      </trkpt>
      <trkpt lat="44.18398" lon="6.64068">
        <ele>1569.9</ele>
        <time>2024-07-10T09:37:14.000Z</time>
      </trkpt>
      <trkpt lat="44.18405" lon="6.64067">
        <ele>1569</ele>
        <time>2024-07-10T09:37:22Z</time>
      </trkpt>
      <trkpt lat="44.1841" lon="6.64069">
        <ele>1569</ele>
        <time>2024-07-10T09:37:25.500Z</time>
      </trkpt>
      <trkpt lat="44.18415" lon="6.64071">
        <ele>1569</ele>
        <time>2024-07-10T09:37:29.000Z</time>
      </trkpt>
      <trkpt lat="44.18419" lon="6.64072">
        <ele>1568.5</ele>
        <time>2024-07-10T09:37:32.500Z</time>
      </trkpt>
      <trkpt lat="44.18424" lon="6.64074">
        <ele>1567.7</ele>
        <time>2024-07-10T09:37:36Z</time>
      </trkpt>
      <trkpt lat="44.18429" lon="6.64078">
        <ele>1567.5</ele>
        <time>2024-07-10T09:37:43.000Z</time>
      </trkpt>
      <trkpt lat="44.18434" lon="6.64082">
        <ele>1567.3</ele>
        <time>2024-07-10T09:37:50Z</time>
      </trkpt>
      <trkpt lat="44.18438" lon="6.64089">
        <ele>1568</ele>
        <time>2024-07-10T09:37:58.500Z</time>
      </trkpt>
      <trkpt lat="44.18441" lon="6.64095">
        <ele>1568.8</ele>
        <time>2024-07-10T09:38:07Z</time>
      </trkpt>
      <trkpt lat="44.18444" lon="6.64101">
        <ele>1569.6</ele>
        <time>2024-07-10T09:38:17.000Z</time>
      </trkpt>
      <trkpt lat="44.18447" lon="6.64107">
        <ele>1570.1</ele>
        <time>2024-07-10T09:38:27Z</time>
      </trkpt>
      <trkpt lat="44.18451" lon="6.64113">
        <ele>1570.3</ele>
        <time>2024-07-10T09:38:34.500Z</time>
      </trkpt>
      <trkpt lat="44.18455" lon="6.64118">
        <ele>1570.7</ele>
        <time>2024-07-10T09:38:42Z</time>
      </trkpt>
      <trkpt lat="44.18459" lon="6.64122">
        <ele>1570.5</ele>
        <time>2024-07-10T09:38:49.000Z</time>
      </trkpt>
      <trkpt lat="44.18463" lon="6.64125">
        <ele>1570.3</ele>
        <time>2024-07-10T09:38:56Z</time>
      </trkpt>
      <trkpt lat="44.18468" lon="6.64134">
        <ele>1571.7</ele>
        <time>2024-07-10T09:39:09Z</time>
      </trkpt>
      <trkpt lat="44.18473" lon="6.64134">
        <ele>1570.2</ele>
        <time>2024-07-10T09:39:16.500Z</time>
      </trkpt>
      <trkpt lat="44.18478" lon="6.64134">
        <ele>1568.7</ele>
        <time>2024-07-10T09:39:24Z</time>
      </trkpt>
      <trkpt lat="44.18484" lon="6.64134">
        <ele>1567.1</ele>
        <time>2024-07-10T09:39:31.000Z</time>
      </trkpt>
      <trkpt lat="44.18489" lon="6.64134">
        <ele>1565.5</ele>
        <time>2024-07-10T09:39:38Z</time>
      </trkpt>
      <trkpt lat="44.18495" lon="6.64137">
        <ele>1564.7</ele>
        <time>2024-07-10T09:39:44.500Z</time>
      </trkpt>
      <trkpt lat="44.185" lon="6.64139">
        <ele>1564</ele>
        <time>2024-07-10T09:39:51Z</time>
      </trkpt>
      <trkpt lat="44.18506" lon="6.64142">
        <ele>1563.6</ele>
        <time>2024-07-10T09:39:58.500Z</time>
      </trkpt>
      <trkpt lat="44.18511" lon="6.64144">
        <ele>1563.3</ele>
        <time>2024-07-10T09:40:06Z</time>
      </trkpt>
      <trkpt lat="44.18517" lon="6.64146">
        <ele>1562.7</ele>
        <time>2024-07-10T09:40:13.500Z</time>
      </trkpt>
      <trkpt lat="44.18522" lon="6.64148">
        <ele>1562.1</ele>
        <time>2024-07-10T09:40:21Z</time>
      </trkpt>
      <trkpt lat="44.18527" lon="6.6415">
        <ele>1561.4</ele>
        <time>2024-07-10T09:40:28.000Z</time>
      </trkpt>
      <trkpt lat="44.18532" lon="6.64151">
        <ele>1560.7</ele>
        <time>2024-07-10T09:40:35Z</time>
      </trkpt>
      <trkpt lat="44.18532" lon="6.6415">
        <ele>1560.3</ele>
        <time>2024-07-10T09:40:51Z</time>
      </trkpt>
      <trkpt lat="44.18537" lon="6.64151">
        <ele>1559.6</ele>
        <time>2024-07-10T09:40:56.500Z</time>
      </trkpt>
      <trkpt lat="44.18541" lon="6.64152">
        <ele>1558.9</ele>
        <time>2024-07-10T09:41:02Z</time>
      </trkpt>
      <trkpt lat="44.1854" lon="6.64154">
        <ele>1559.9</ele>
        <time>2024-07-10T09:41:21Z</time>
      </trkpt>
      <trkpt lat="44.18545" lon="6.64156">
        <ele>1559.2</ele>
        <time>2024-07-10T09:41:28.500Z</time>
      </trkpt>
      <trkpt lat="44.1855" lon="6.64157">
        <ele>1558.6</ele>
        <time>2024-07-10T09:41:36Z</time>
      </trkpt>
      <trkpt lat="44.18556" lon="6.6416">
        <ele>1558</ele>
        <time>2024-07-10T09:41:42.000Z</time>
      </trkpt>
      <trkpt lat="44.18562" lon="6.64162">
        <ele>1557.3</ele>
        <time>2024-07-10T09:41:48Z</time>
      </trkpt>
      <trkpt lat="44.18569" lon="6.64166">
        <ele>1556.8</ele>
        <time>2024-07-10T09:41:54.500Z</time>
      </trkpt>
      <trkpt lat="44.18575" lon="6.64169">
        <ele>1556.4</ele>
        <time>2024-07-10T09:42:01Z</time>
      </trkpt>
      <trkpt lat="44.1858" lon="6.64171">
        <ele>1555.7</ele>
        <time>2024-07-10T09:42:07.500Z</time>
      </trkpt>
      <trkpt lat="44.18584" lon="6.64172">
        <ele>1555.1</ele>
        <time>2024-07-10T09:42:14Z</time>
      </trkpt>
      <trkpt lat="44.1859" lon="6.64178">
        <ele>1555.7</ele>
        <time>2024-07-10T09:42:32Z</time>
      </trkpt>
      <trkpt lat="44.18593" lon="6.64189">
        <ele>1559.5</ele>
        <time>2024-07-10T09:42:47Z</time>
      </trkpt>
      <trkpt lat="44.18597" lon="6.64195">
        <ele>1560.6</ele>
        <time>2024-07-10T09:42:57.000Z</time>
      </trkpt>
      <trkpt lat="44.18601" lon="6.642">
        <ele>1561.9</ele>
        <time>2024-07-10T09:43:07Z</time>
      </trkpt>
      <trkpt lat="44.18604" lon="6.64206">
        <ele>1563.7</ele>
        <time>2024-07-10T09:43:14.000Z</time>
      </trkpt>
      <trkpt lat="44.18606" lon="6.64211">
        <ele>1565.7</ele>
        <time>2024-07-10T09:43:21Z</time>
      </trkpt>
      <trkpt lat="44.18607" lon="6.6422">
        <ele>1569.9</ele>
        <time>2024-07-10T09:43:27.500Z</time>
      </trkpt>
      <trkpt lat="44.18607" lon="6.64229">
        <ele>1573.5</ele>
        <time>2024-07-10T09:43:34Z</time>
      </trkpt>
      <trkpt lat="44.18613" lon="6.64229">
        <ele>1572.3</ele>
        <time>2024-07-10T09:43:45.500Z</time>
      </trkpt>
      <trkpt lat="44.18618" lon="6.64229">
        <ele>1570.8</ele>
        <time>2024-07-10T09:43:57Z</time>
      </trkpt>
      <trkpt lat="44.18624" lon="6.64232">
        <ele>1570.6</ele>
        <time>2024-07-10T09:44:04.000Z</time>
      </trkpt>
      <trkpt lat="44.18629" lon="6.64235">
        <ele>1570.5</ele>
        <time>2024-07-10T09:44:11Z</time>
      </trkpt>
      <trkpt lat="44.18634" lon="6.64238">
        <ele>1570.4</ele>
        <time>2024-07-10T09:44:19.000Z</time>
      </trkpt>
      <trkpt lat="44.18639" lon="6.6424">
        <ele>1570.3</ele>
        <time>2024-07-10T09:44:27Z</time>
      </trkpt>
      <trkpt lat="44.18642" lon="6.6424">
        <ele>1569.7</ele>
        <time>2024-07-10T09:44:58Z</time>
      </trkpt>
      <trkpt lat="44.18649" lon="6.64244">
        <ele>1570.2</ele>
        <time>2024-07-10T09:45:05.500Z</time>
      </trkpt>
      <trkpt lat="44.18655" lon="6.64248">
        <ele>1570.6</ele>
        <time>2024-07-10T09:45:13Z</time>
      </trkpt>
      <trkpt lat="44.18662" lon="6.64253">
        <ele>1571</ele>
        <time>2024-07-10T09:45:21.000Z</time>
      </trkpt>
      <trkpt lat="44.18668" lon="6.64257">
        <ele>1571.2</ele>
        <time>2024-07-10T09:45:29Z</time>
      </trkpt>
      <trkpt lat="44.18672" lon="6.64262">
        <ele>1572.2</ele>
        <time>2024-07-10T09:45:37.000Z</time>
      </trkpt>
      <trkpt lat="44.18675" lon="6.64267">
        <ele>1573.1</ele>
        <time>2024-07-10T09:45:45Z</time>
      </trkpt>
      <trkpt lat="44.18677" lon="6.64274">
        <ele>1575</ele>
        <time>2024-07-10T09:45:54.000Z</time>
      </trkpt>
      <trkpt lat="44.18678" lon="6.6428">
        <ele>1576.7</ele>
        <time>2024-07-10T09:46:03Z</time>
      </trkpt>
      <trkpt lat="44.18679" lon="6.64291">
        <ele>1579</ele>
        <time>2024-07-10T09:46:19Z</time>
      </trkpt>
      <trkpt lat="44.18674" lon="6.643">
        <ele>1582.5</ele>
        <time>2024-07-10T09:46:36Z</time>
      </trkpt>
      <trkpt lat="44.18677" lon="6.64307">
        <ele>1583.3</ele>
        <time>2024-07-10T09:47:00Z</time>
      </trkpt>
      <trkpt lat="44.18678" lon="6.64318">
        <ele>1584.7</ele>
        <time>2024-07-10T09:47:18Z</time>
      </trkpt>
      <trkpt lat="44.18674" lon="6.64327">
        <ele>1587.2</ele>
        <time>2024-07-10T09:47:34Z</time>
      </trkpt>
      <trkpt lat="44.18675" lon="6.64335">
        <ele>1588.1</ele>
        <time>2024-07-10T09:47:41.000Z</time>
      </trkpt>
      <trkpt lat="44.18675" lon="6.64342">
        <ele>1588.5</ele>
        <time>2024-07-10T09:47:48Z</time>
      </trkpt>
      <trkpt lat="44.18673" lon="6.64354">
        <ele>1589.9</ele>
        <time>2024-07-10T09:48:04Z</time>
      </trkpt>
      <trkpt lat="44.18674" lon="6.64363">
        <ele>1590.4</ele>
        <time>2024-07-10T09:48:12.000Z</time>
      </trkpt>
      <trkpt lat="44.18674" lon="6.64371">
        <ele>1590.9</ele>
        <time>2024-07-10T09:48:20Z</time>
      </trkpt>
      <trkpt lat="44.18677" lon="6.64382">
        <ele>1590.9</ele>
        <time>2024-07-10T09:48:35Z</time>
      </trkpt>
      <trkpt lat="44.18678" lon="6.64394">
        <ele>1591.3</ele>
        <time>2024-07-10T09:48:52Z</time>
      </trkpt>
      <trkpt lat="44.18675" lon="6.64405">
        <ele>1592.5</ele>
        <time>2024-07-10T09:49:07Z</time>
      </trkpt>
      <trkpt lat="44.18674" lon="6.64412">
        <ele>1593.1</ele>
        <time>2024-07-10T09:49:16.499Z</time>
      </trkpt>
      <trkpt lat="44.18672" lon="6.64419">
        <ele>1593.8</ele>
        <time>2024-07-10T09:49:26Z</time>
      </trkpt>
      <trkpt lat="44.1867" lon="6.6442">
        <ele>1594.3</ele>
        <time>2024-07-10T09:50:05Z</time>
      </trkpt>
      <trkpt lat="44.18668" lon="6.6442">
        <ele>1594.8</ele>
        <time>2024-07-10T09:50:42Z</time>
      </trkpt>
      <trkpt lat="44.18665" lon="6.64427">
        <ele>1595.8</ele>
        <time>2024-07-10T09:50:49.499Z</time>
      </trkpt>
      <trkpt lat="44.18662" lon="6.64433">
        <ele>1596.9</ele>
        <time>2024-07-10T09:50:57Z</time>
      </trkpt>
      <trkpt lat="44.18658" lon="6.64439">
        <ele>1598.4</ele>
        <time>2024-07-10T09:51:03.499Z</time>
      </trkpt>
      <trkpt lat="44.18653" lon="6.64444">
        <ele>1599.9</ele>
        <time>2024-07-10T09:51:10Z</time>
      </trkpt>
      <trkpt lat="44.18651" lon="6.6445">
        <ele>1601.1</ele>
        <time>2024-07-10T09:51:15.999Z</time>
      </trkpt>
      <trkpt lat="44.18648" lon="6.64456">
        <ele>1602.2</ele>
        <time>2024-07-10T09:51:22Z</time>
      </trkpt>
      <trkpt lat="44.18647" lon="6.64463">
        <ele>1603</ele>
        <time>2024-07-10T09:51:28.499Z</time>
      </trkpt>
      <trkpt lat="44.18646" lon="6.64469">
        <ele>1603.7</ele>
        <time>2024-07-10T09:51:35Z</time>
      </trkpt>
      <trkpt lat="44.18646" lon="6.64477">
        <ele>1604.3</ele>
        <time>2024-07-10T09:51:42.500Z</time>
      </trkpt>
      <trkpt lat="44.18646" lon="6.64485">
        <ele>1604.8</ele>
        <time>2024-07-10T09:51:50Z</time>
      </trkpt>
      <trkpt lat="44.18644" lon="6.64492">
        <ele>1605.8</ele>
        <time>2024-07-10T09:51:58.499Z</time>
      </trkpt>
      <trkpt lat="44.18642" lon="6.64499">
        <ele>1606.9</ele>
        <time>2024-07-10T09:52:07Z</time>
      </trkpt>
      <trkpt lat="44.1864" lon="6.64505">
        <ele>1608</ele>
        <time>2024-07-10T09:52:15.999Z</time>
      </trkpt>
      <trkpt lat="44.18638" lon="6.64511">
        <ele>1609.1</ele>
        <time>2024-07-10T09:52:25Z</time>
      </trkpt>
      <trkpt lat="44.18636" lon="6.64522">
        <ele>1610.7</ele>
        <time>2024-07-10T09:55:03Z</time>
      </trkpt>
      <trkpt lat="44.18637" lon="6.6453">
        <ele>1611.1</ele>
        <time>2024-07-10T09:55:12.000Z</time>
      </trkpt>
      <trkpt lat="44.18637" lon="6.64537">
        <ele>1611.7</ele>
        <time>2024-07-10T09:55:21Z</time>
      </trkpt>
      <trkpt lat="44.1864" lon="6.64543">
        <ele>1611.5</ele>
        <time>2024-07-10T09:55:30.000Z</time>
      </trkpt>
      <trkpt lat="44.18642" lon="6.64549">
        <ele>1611.5</ele>
        <time>2024-07-10T09:55:39Z</time>
      </trkpt>
      <trkpt lat="44.18639" lon="6.64554">
        <ele>1613</ele>
        <time>2024-07-10T09:55:47.499Z</time>
      </trkpt>
      <trkpt lat="44.18635" lon="6.64559">
        <ele>1615.1</ele>
        <time>2024-07-10T09:55:56Z</time>
      </trkpt>
      <trkpt lat="44.18636" lon="6.64566">
        <ele>1615.9</ele>
        <time>2024-07-10T09:56:05.500Z</time>
      </trkpt>
      <trkpt lat="44.18637" lon="6.64572">
        <ele>1616.6</ele>
        <time>2024-07-10T09:56:15Z</time>
      </trkpt>
      <trkpt lat="44.18637" lon="6.64582">
        <ele>1618.4</ele>
        <time>2024-07-10T09:56:35Z</time>
      </trkpt>
      <trkpt lat="44.18641" lon="6.64587">
        <ele>1618.1</ele>
        <time>2024-07-10T09:56:44.000Z</time>
      </trkpt>
      <trkpt lat="44.18644" lon="6.64591">
        <ele>1617.9</ele>
        <time>2024-07-10T09:56:53Z</time>
      </trkpt>
      <trkpt lat="44.18644" lon="6.64603">
        <ele>1619.7</ele>
        <time>2024-07-10T09:57:15Z</time>
      </trkpt>
      <trkpt lat="44.18647" lon="6.64604">
        <ele>1619.1</ele>
        <time>2024-07-10T09:57:42Z</time>
      </trkpt>
      <trkpt lat="44.18646" lon="6.64605">
        <ele>1619.5</ele>
        <time>2024-07-10T09:58:10Z</time>
      </trkpt>
      <trkpt lat="44.18644" lon="6.6461">
        <ele>1620.7</ele>
        <time>2024-07-10T09:58:27Z</time>
      </trkpt>
      <trkpt lat="44.18643" lon="6.64622">
        <ele>1622.3</ele>
        <time>2024-07-10T09:58:46Z</time>
      </trkpt>
      <trkpt lat="44.18645" lon="6.64629">
        <ele>1622.7</ele>
        <time>2024-07-10T09:58:54.000Z</time>
      </trkpt>
      <trkpt lat="44.18646" lon="6.64635">
        <ele>1623</ele>
        <time>2024-07-10T09:59:02Z</time>
      </trkpt>
      <trkpt lat="44.18644" lon="6.64646">
        <ele>1624.7</ele>
        <time>2024-07-10T09:59:16Z</time>
      </trkpt>
      <trkpt lat="44.18642" lon="6.64652">
        <ele>1625.8</ele>
        <time>2024-07-10T09:59:22.499Z</time>
      </trkpt>
      <trkpt lat="44.18639" lon="6.64657">
        <ele>1626.9</ele>
        <time>2024-07-10T09:59:29Z</time>
      </trkpt>
      <trkpt lat="44.18641" lon="6.64667">
        <ele>1627.7</ele>
        <time>2024-07-10T09:59:37.000Z</time>
      </trkpt>
      <trkpt lat="44.18642" lon="6.64677">
        <ele>1628.4</ele>
        <time>2024-07-10T09:59:45Z</time>
      </trkpt>
      <trkpt lat="44.18643" lon="6.64688">
        <ele>1629.4</ele>
        <time>2024-07-10T10:00:00Z</time>
      </trkpt>
      <trkpt lat="44.18643" lon="6.64692">
        <ele>1629.8</ele>
        <time>2024-07-10T10:01:19Z</time>
      </trkpt>
      <trkpt lat="44.18643" lon="6.647">
        <ele>1630.5</ele>
        <time>2024-07-10T10:01:51Z</time>
      </trkpt>
      <trkpt lat="44.18645" lon="6.64712">
        <ele>1630.9</ele>
        <time>2024-07-10T10:02:04Z</time>
      </trkpt>
      <trkpt lat="44.18644" lon="6.64719">
        <ele>1631.6</ele>
        <time>2024-07-10T10:02:10.499Z</time>
      </trkpt>
      <trkpt lat="44.18643" lon="6.64725">
        <ele>1632.4</ele>
        <time>2024-07-10T10:02:17Z</time>
      </trkpt>
      <trkpt lat="44.18642" lon="6.64732">
        <ele>1633.3</ele>
        <time>2024-07-10T10:02:24.999Z</time>
      </trkpt>
      <trkpt lat="44.18641" lon="6.64739">
        <ele>1634.3</ele>
        <time>2024-07-10T10:02:33Z</time>
      </trkpt>
      <trkpt lat="44.18637" lon="6.64749">
        <ele>1636.4</ele>
        <time>2024-07-10T10:02:54Z</time>
      </trkpt>
      <trkpt lat="44.18635" lon="6.6476">
        <ele>1637.9</ele>
        <time>2024-07-10T10:03:12Z</time>
      </trkpt>
      <trkpt lat="44.18634" lon="6.6477">
        <ele>1639</ele>
        <time>2024-07-10T10:03:28Z</time>
      </trkpt>
      <trkpt lat="44.18631" lon="6.64774">
        <ele>1640.4</ele>
        <time>2024-07-10T10:03:35.499Z</time>
      </trkpt>
      <trkpt lat="44.18627" lon="6.64778">
        <ele>1641.9</ele>
        <time>2024-07-10T10:03:43Z</time>
      </trkpt>
      <trkpt lat="44.18619" lon="6.64778">
        <ele>1644.5</ele>
        <time>2024-07-10T10:04:00Z</time>
      </trkpt>
      <trkpt lat="44.18618" lon="6.64786">
        <ele>1645.5</ele>
        <time>2024-07-10T10:04:19Z</time>
      </trkpt>
      <trkpt lat="44.18619" lon="6.64789">
        <ele>1645.4</ele>
        <time>2024-07-10T10:04:56Z</time>
      </trkpt>
      <trkpt lat="44.18623" lon="6.64794">
        <ele>1644.5</ele>
        <time>2024-07-10T10:05:08.000Z</time>
      </trkpt>
      <trkpt lat="44.18626" lon="6.64798">
        <ele>1643.6</ele>
        <time>2024-07-10T10:05:20Z</time>
      </trkpt>
      <trkpt lat="44.18625" lon="6.64806">
        <ele>1644.5</ele>
        <time>2024-07-10T10:05:42Z</time>
      </trkpt>
      <trkpt lat="44.18631" lon="6.64815">
        <ele>1642.5</ele>
        <time>2024-07-10T10:06:02Z</time>
      </trkpt>
      <trkpt lat="44.18635" lon="6.6482">
        <ele>1641.3</ele>
        <time>2024-07-10T10:06:14.500Z</time>
      </trkpt>
      <trkpt lat="44.18638" lon="6.64825">
        <ele>1640.1</ele>
        <time>2024-07-10T10:06:27Z</time>
      </trkpt>
      <trkpt lat="44.18633" lon="6.6483">
        <ele>1642.2</ele>
        <time>2024-07-10T10:06:50Z</time>
      </trkpt>
      <trkpt lat="44.18628" lon="6.64831">
        <ele>1644.4</ele>
        <time>2024-07-10T10:07:00.500Z</time>
      </trkpt>
      <trkpt lat="44.18622" lon="6.64831">
        <ele>1646.6</ele>
        <time>2024-07-10T10:07:11Z</time>
      </trkpt>
      <trkpt lat="44.1862" lon="6.64841">
        <ele>1647.4</ele>
        <time>2024-07-10T10:07:36Z</time>
      </trkpt>
      <trkpt lat="44.18612" lon="6.64846">
        <ele>1650.6</ele>
        <time>2024-07-10T10:07:58Z</time>
      </trkpt>
      <trkpt lat="44.18608" lon="6.64848">
        <ele>1652.5</ele>
        <time>2024-07-10T10:08:07.499Z</time>
      </trkpt>
      <trkpt lat="44.18603" lon="6.64849">
        <ele>1654.4</ele>
        <time>2024-07-10T10:08:17Z</time>
      </trkpt>
      <trkpt lat="44.18595" lon="6.64853">
        <ele>1657.8</ele>
        <time>2024-07-10T10:08:40Z</time>
      </trkpt>
      <trkpt lat="44.18594" lon="6.64857">
        <ele>1658.3</ele>
        <time>2024-07-10T10:09:09Z</time>
      </trkpt>
      <trkpt lat="44.18595" lon="6.64861">
        <ele>1658</ele>
        <time>2024-07-10T10:09:31Z</time>
      </trkpt>
      <trkpt lat="44.18591" lon="6.64869">
        <ele>1659.9</ele>
        <time>2024-07-10T10:09:35.999Z</time>
      </trkpt>
      <trkpt lat="44.18587" lon="6.64876">
        <ele>1661.9</ele>
        <time>2024-07-10T10:09:41Z</time>
      </trkpt>
      <trkpt lat="44.18587" lon="6.64883">
        <ele>1662.3</ele>
        <time>2024-07-10T10:09:45.999Z</time>
      </trkpt>
      <trkpt lat="44.18586" lon="6.6489">
        <ele>1662.8</ele>
        <time>2024-07-10T10:09:51Z</time>
      </trkpt>
      <trkpt lat="44.18586" lon="6.64898">
        <ele>1663.1</ele>
        <time>2024-07-10T10:09:56.500Z</time>
      </trkpt>
      <trkpt lat="44.18586" lon="6.64906">
        <ele>1663.4</ele>
        <time>2024-07-10T10:10:02Z</time>
      </trkpt>
      <trkpt lat="44.18588" lon="6.64914">
        <ele>1663.1</ele>
        <time>2024-07-10T10:10:07.000Z</time>
      </trkpt>
      <trkpt lat="44.18589" lon="6.64922">
        <ele>1663.2</ele>
        <time>2024-07-10T10:10:12Z</time>
      </trkpt>
      <trkpt lat="44.1859" lon="6.64929">
        <ele>1663.6</ele>
        <time>2024-07-10T10:10:17.000Z</time>
      </trkpt>
      <trkpt lat="44.18591" lon="6.64935">
        <ele>1664</ele>
        <time>2024-07-10T10:10:22Z</time>
      </trkpt>
      <trkpt lat="44.18594" lon="6.64942">
        <ele>1663.9</ele>
        <time>2024-07-10T10:10:27.000Z</time>
      </trkpt>
      <trkpt lat="44.18596" lon="6.64948">
        <ele>1664.3</ele>
        <time>2024-07-10T10:10:32Z</time>
      </trkpt>
      <trkpt lat="44.18601" lon="6.64956">
        <ele>1664.8</ele>
        <time>2024-07-10T10:10:42Z</time>
      </trkpt>
      <trkpt lat="44.18606" lon="6.64956">
        <ele>1663.3</ele>
        <time>2024-07-10T10:10:48.000Z</time>
      </trkpt>
      <trkpt lat="44.1861" lon="6.64955">
        <ele>1661.8</ele>
        <time>2024-07-10T10:10:54Z</time>
      </trkpt>
      <trkpt lat="44.18615" lon="6.6496">
        <ele>1662</ele>
        <time>2024-07-10T10:11:00.000Z</time>
      </trkpt>
      <trkpt lat="44.1862" lon="6.64965">
        <ele>1662.3</ele>
        <time>2024-07-10T10:11:06Z</time>
      </trkpt>
      <trkpt lat="44.18625" lon="6.64968">
        <ele>1661.9</ele>
        <time>2024-07-10T10:11:11.500Z</time>
      </trkpt>
      <trkpt lat="44.1863" lon="6.6497">
        <ele>1661.5</ele>
        <time>2024-07-10T10:11:17Z</time>
      </trkpt>
      <trkpt lat="44.18634" lon="6.64973">
        <ele>1661.5</ele>
        <time>2024-07-10T10:11:22.000Z</time>
      </trkpt>
      <trkpt lat="44.18638" lon="6.64976">
        <ele>1661.6</ele>
        <time>2024-07-10T10:11:27Z</time>
      </trkpt>
      <trkpt lat="44.18643" lon="6.64979">
        <ele>1661.3</ele>
        <time>2024-07-10T10:11:33.500Z</time>
      </trkpt>
      <trkpt lat="44.18648" lon="6.64981">
        <ele>1661.1</ele>
        <time>2024-07-10T10:11:40Z</time>
      </trkpt>
      <trkpt lat="44.18653" lon="6.64989">
        <ele>1662.5</ele>
        <time>2024-07-10T10:11:46.000Z</time>
      </trkpt>
      <trkpt lat="44.18658" lon="6.64996">
        <ele>1663.8</ele>
        <time>2024-07-10T10:11:52Z</time>
      </trkpt>
      <trkpt lat="44.18662" lon="6.65003">
        <ele>1665.2</ele>
        <time>2024-07-10T10:11:58.500Z</time>
      </trkpt>
      <trkpt lat="44.18665" lon="6.6501">
        <ele>1666.3</ele>
        <time>2024-07-10T10:12:05Z</time>
      </trkpt>
      <trkpt lat="44.18669" lon="6.65016">
        <ele>1667.3</ele>
        <time>2024-07-10T10:12:11.000Z</time>
      </trkpt>
      <trkpt lat="44.18672" lon="6.65022">
        <ele>1668.4</ele>
        <time>2024-07-10T10:12:17Z</time>
      </trkpt>
      <trkpt lat="44.18675" lon="6.65029">
        <ele>1669.8</ele>
        <time>2024-07-10T10:12:23.000Z</time>
      </trkpt>
      <trkpt lat="44.18678" lon="6.65036">
        <ele>1670.6</ele>
        <time>2024-07-10T10:12:29Z</time>
      </trkpt>
      <trkpt lat="44.18682" lon="6.65043">
        <ele>1671.2</ele>
        <time>2024-07-10T10:12:34.500Z</time>
      </trkpt>
      <trkpt lat="44.18685" lon="6.65049">
        <ele>1671.8</ele>
        <time>2024-07-10T10:12:40Z</time>
      </trkpt>
      <trkpt lat="44.1869" lon="6.65054">
        <ele>1671.7</ele>
        <time>2024-07-10T10:12:45.500Z</time>
      </trkpt>
      <trkpt lat="44.18694" lon="6.65058">
        <ele>1671.4</ele>
        <time>2024-07-10T10:12:51Z</time>
      </trkpt>
      <trkpt lat="44.18698" lon="6.65064">
        <ele>1671.5</ele>
        <time>2024-07-10T10:12:56.000Z</time>
      </trkpt>
      <trkpt lat="44.18701" lon="6.6507">
        <ele>1671.5</ele>
        <time>2024-07-10T10:13:01Z</time>
      </trkpt>
      <trkpt lat="44.18705" lon="6.65078">
        <ele>1671.6</ele>
        <time>2024-07-10T10:13:06.500Z</time>
      </trkpt>
      <trkpt lat="44.18709" lon="6.65085">
        <ele>1671.5</ele>
        <time>2024-07-10T10:13:12Z</time>
      </trkpt>
      <trkpt lat="44.18711" lon="6.65093">
        <ele>1671.9</ele>
        <time>2024-07-10T10:13:17.000Z</time>
      </trkpt>
      <trkpt lat="44.18712" lon="6.651">
        <ele>1672.4</ele>
        <time>2024-07-10T10:13:22Z</time>
      </trkpt>
      <trkpt lat="44.18708" lon="6.65107">
        <ele>1674.3</ele>
        <time>2024-07-10T10:13:26.999Z</time>
      </trkpt>
      <trkpt lat="44.18703" lon="6.65114">
        <ele>1676.1</ele>
        <time>2024-07-10T10:13:32Z</time>
      </trkpt>
      <trkpt lat="44.187" lon="6.65122">
        <ele>1677.3</ele>
        <time>2024-07-10T10:13:38.499Z</time>
      </trkpt>
      <trkpt lat="44.18697" lon="6.65129">
        <ele>1678.6</ele>
        <time>2024-07-10T10:13:45Z</time>
      </trkpt>
      <trkpt lat="44.18697" lon="6.6514">
        <ele>1679.4</ele>
        <time>2024-07-10T10:13:50.500Z</time>
      </trkpt>
      <trkpt lat="44.18697" lon="6.6515">
        <ele>1680.2</ele>
        <time>2024-07-10T10:13:56Z</time>
      </trkpt>
      <trkpt lat="44.18697" lon="6.65158">
        <ele>1680.8</ele>
        <time>2024-07-10T10:14:00.999Z</time>
      </trkpt>
      <trkpt lat="44.18696" lon="6.65165">
        <ele>1681.5</ele>
        <time>2024-07-10T10:14:06Z</time>
      </trkpt>
      <trkpt lat="44.18696" lon="6.65176">
        <ele>1682.3</ele>
        <time>2024-07-10T10:14:14Z</time>
      </trkpt>
    </trkseg>
  </trk>
</gpx>